<?xml version="1.0" encoding="UTF-8" standalone="no" ?>
<gpx xmlns="http://www.topografix.com/GPX/1/1" xmlns:xsi="http://www.w3.org/2001/XMLSchema-instance" xsi:schemaLocation="http://www.topografix.com/GPX/1/1 http://www.topografix.com/GPX/1/1/gpx.xsd" version="1.1" creator="VisuGPX - https://www.visugpx.com">
  <metadata>
    <name>s20130815_Meulers_StNicolas.GPX</name>
    <desc><![CDATA[s20130815_Meulers_StNicolas.GPX]]></desc>
  </metadata>
  <trk>
    <name><![CDATA[2013-08-15-02]]></name>
    <trkseg>
      <trkpt lat="49.91788" lon="1.07665">
        <ele>3.7</ele>
        <time>2013-08-15T06:09:58Z</time>
      </trkpt>
      <trkpt lat="49.91697" lon="1.07774">
        <ele>12</ele>
        <time>2013-08-15T06:10:26Z</time>
      </trkpt>
      <trkpt lat="49.91606" lon="1.07875">
        <ele>3</ele>
        <time>2013-08-15T06:10:50Z</time>
      </trkpt>
      <trkpt lat="49.91532" lon="1.07947">
        <ele>-22</ele>
        <time>2013-08-15T06:11:06Z</time>
      </trkpt>
      <trkpt lat="49.91462" lon="1.0805">
        <ele>-0.2</ele>
        <time>2013-08-15T06:11:24Z</time>
      </trkpt>
      <trkpt lat="49.91411" lon="1.08113">
        <ele>15</ele>
        <time>2013-08-15T06:11:35Z</time>
      </trkpt>
      <trkpt lat="49.91359" lon="1.0816">
        <ele>18.6</ele>
        <time>2013-08-15T06:11:46Z</time>
      </trkpt>
      <trkpt lat="49.91309" lon="1.08214">
        <ele>14.5</ele>
        <time>2013-08-15T06:11:56Z</time>
      </trkpt>
      <trkpt lat="49.91257" lon="1.08271">
        <ele>14.3</ele>
        <time>2013-08-15T06:12:07Z</time>
      </trkpt>
      <trkpt lat="49.91207" lon="1.08328">
        <ele>20.2</ele>
        <time>2013-08-15T06:12:19Z</time>
      </trkpt>
      <trkpt lat="49.91157" lon="1.08368">
        <ele>15.1</ele>
        <time>2013-08-15T06:12:28Z</time>
      </trkpt>
      <trkpt lat="49.91111" lon="1.08411">
        <ele>10.6</ele>
        <time>2013-08-15T06:12:37Z</time>
      </trkpt>
      <trkpt lat="49.91066" lon="1.0847">
        <ele>17.7</ele>
        <time>2013-08-15T06:12:49Z</time>
      </trkpt>
      <trkpt lat="49.91016" lon="1.08523">
        <ele>17.6</ele>
        <time>2013-08-15T06:13:01Z</time>
      </trkpt>
      <trkpt lat="49.90964" lon="1.08589">
        <ele>12</ele>
        <time>2013-08-15T06:13:13Z</time>
      </trkpt>
      <trkpt lat="49.90917" lon="1.08658">
        <ele>9.1</ele>
        <time>2013-08-15T06:13:25Z</time>
      </trkpt>
      <trkpt lat="49.90869" lon="1.08725">
        <ele>2.7</ele>
        <time>2013-08-15T06:13:36Z</time>
      </trkpt>
      <trkpt lat="49.90815" lon="1.08803">
        <ele>0.1</ele>
        <time>2013-08-15T06:13:47Z</time>
      </trkpt>
      <trkpt lat="49.90768" lon="1.0888">
        <ele>0.8</ele>
        <time>2013-08-15T06:13:59Z</time>
      </trkpt>
      <trkpt lat="49.90722" lon="1.08951">
        <ele>3.4</ele>
        <time>2013-08-15T06:14:11Z</time>
      </trkpt>
      <trkpt lat="49.90681" lon="1.09023">
        <ele>8.6</ele>
        <time>2013-08-15T06:14:23Z</time>
      </trkpt>
      <trkpt lat="49.90634" lon="1.09098">
        <ele>10.8</ele>
        <time>2013-08-15T06:14:35Z</time>
      </trkpt>
      <trkpt lat="49.90587" lon="1.09173">
        <ele>13.3</ele>
        <time>2013-08-15T06:14:47Z</time>
      </trkpt>
      <trkpt lat="49.90535" lon="1.09222">
        <ele>16.6</ele>
        <time>2013-08-15T06:14:58Z</time>
      </trkpt>
      <trkpt lat="49.90508" lon="1.09251">
        <ele>18.2</ele>
        <time>2013-08-15T06:15:04Z</time>
      </trkpt>
      <trkpt lat="49.90471" lon="1.09288">
        <ele>17.7</ele>
        <time>2013-08-15T06:15:13Z</time>
      </trkpt>
      <trkpt lat="49.90415" lon="1.09326">
        <ele>11.8</ele>
        <time>2013-08-15T06:15:28Z</time>
      </trkpt>
      <trkpt lat="49.90362" lon="1.09272">
        <ele>8.5</ele>
        <time>2013-08-15T06:15:41Z</time>
      </trkpt>
      <trkpt lat="49.90305" lon="1.09227">
        <ele>23.7</ele>
        <time>2013-08-15T06:16:04Z</time>
      </trkpt>
      <trkpt lat="49.90237" lon="1.09235">
        <ele>43.4</ele>
        <time>2013-08-15T06:16:43Z</time>
      </trkpt>
      <trkpt lat="49.9017" lon="1.09238">
        <ele>49.5</ele>
        <time>2013-08-15T06:17:22Z</time>
      </trkpt>
      <trkpt lat="49.90101" lon="1.09229">
        <ele>53.2</ele>
        <time>2013-08-15T06:18:05Z</time>
      </trkpt>
      <trkpt lat="49.90034" lon="1.09221">
        <ele>58.5</ele>
        <time>2013-08-15T06:18:40Z</time>
      </trkpt>
      <trkpt lat="49.89976" lon="1.0927">
        <ele>77.5</ele>
        <time>2013-08-15T06:19:16Z</time>
      </trkpt>
      <trkpt lat="49.89916" lon="1.09313">
        <ele>74.3</ele>
        <time>2013-08-15T06:19:43Z</time>
      </trkpt>
      <trkpt lat="49.89854" lon="1.09348">
        <ele>78</ele>
        <time>2013-08-15T06:20:11Z</time>
      </trkpt>
      <trkpt lat="49.89788" lon="1.09373">
        <ele>83.5</ele>
        <time>2013-08-15T06:20:41Z</time>
      </trkpt>
      <trkpt lat="49.89719" lon="1.09381">
        <ele>81.5</ele>
        <time>2013-08-15T06:22:50Z</time>
      </trkpt>
      <trkpt lat="49.89652" lon="1.09386">
        <ele>85.8</ele>
        <time>2013-08-15T06:23:10Z</time>
      </trkpt>
      <trkpt lat="49.8959" lon="1.09393">
        <ele>87</ele>
        <time>2013-08-15T06:23:27Z</time>
      </trkpt>
      <trkpt lat="49.8953" lon="1.09404">
        <ele>88</ele>
        <time>2013-08-15T06:23:43Z</time>
      </trkpt>
      <trkpt lat="49.89468" lon="1.09415">
        <ele>90</ele>
        <time>2013-08-15T06:23:59Z</time>
      </trkpt>
      <trkpt lat="49.89405" lon="1.09427">
        <ele>91.3</ele>
        <time>2013-08-15T06:24:15Z</time>
      </trkpt>
      <trkpt lat="49.8934" lon="1.0944">
        <ele>91.8</ele>
        <time>2013-08-15T06:24:32Z</time>
      </trkpt>
      <trkpt lat="49.89277" lon="1.09447">
        <ele>93.8</ele>
        <time>2013-08-15T06:26:12Z</time>
      </trkpt>
      <trkpt lat="49.89213" lon="1.09447">
        <ele>94.3</ele>
        <time>2013-08-15T06:26:28Z</time>
      </trkpt>
      <trkpt lat="49.89146" lon="1.09449">
        <ele>94.4</ele>
        <time>2013-08-15T06:26:44Z</time>
      </trkpt>
      <trkpt lat="49.89088" lon="1.09456">
        <ele>95</ele>
        <time>2013-08-15T06:26:57Z</time>
      </trkpt>
      <trkpt lat="49.89019" lon="1.09466">
        <ele>95.4</ele>
        <time>2013-08-15T06:27:13Z</time>
      </trkpt>
      <trkpt lat="49.88952" lon="1.09481">
        <ele>96</ele>
        <time>2013-08-15T06:27:29Z</time>
      </trkpt>
      <trkpt lat="49.88936" lon="1.09487">
        <ele>96.5</ele>
        <time>2013-08-15T06:27:33Z</time>
      </trkpt>
      <trkpt lat="49.88873" lon="1.09507">
        <ele>97</ele>
        <time>2013-08-15T06:27:49Z</time>
      </trkpt>
      <trkpt lat="49.88823" lon="1.09531">
        <ele>98</ele>
        <time>2013-08-15T06:28:06Z</time>
      </trkpt>
      <trkpt lat="49.88751" lon="1.09579">
        <ele>97.9</ele>
        <time>2013-08-15T06:28:25Z</time>
      </trkpt>
      <trkpt lat="49.88689" lon="1.09608">
        <ele>100.8</ele>
        <time>2013-08-15T06:28:41Z</time>
      </trkpt>
      <trkpt lat="49.88627" lon="1.09628">
        <ele>102.5</ele>
        <time>2013-08-15T06:28:57Z</time>
      </trkpt>
      <trkpt lat="49.88579" lon="1.09645">
        <ele>104.5</ele>
        <time>2013-08-15T06:29:10Z</time>
      </trkpt>
      <trkpt lat="49.88503" lon="1.0965">
        <ele>105.5</ele>
        <time>2013-08-15T06:29:31Z</time>
      </trkpt>
      <trkpt lat="49.88459" lon="1.09587">
        <ele>102</ele>
        <time>2013-08-15T06:29:47Z</time>
      </trkpt>
      <trkpt lat="49.88431" lon="1.095">
        <ele>101</ele>
        <time>2013-08-15T06:30:01Z</time>
      </trkpt>
      <trkpt lat="49.88404" lon="1.09424">
        <ele>103.5</ele>
        <time>2013-08-15T06:30:14Z</time>
      </trkpt>
      <trkpt lat="49.88371" lon="1.09321">
        <ele>106</ele>
        <time>2013-08-15T06:30:31Z</time>
      </trkpt>
      <trkpt lat="49.88359" lon="1.09281">
        <ele>105</ele>
        <time>2013-08-15T06:30:37Z</time>
      </trkpt>
      <trkpt lat="49.88334" lon="1.09218">
        <ele>103.9</ele>
        <time>2013-08-15T06:30:48Z</time>
      </trkpt>
      <trkpt lat="49.88299" lon="1.09134">
        <ele>104.5</ele>
        <time>2013-08-15T06:31:04Z</time>
      </trkpt>
      <trkpt lat="49.88279" lon="1.0906">
        <ele>104.5</ele>
        <time>2013-08-15T06:31:19Z</time>
      </trkpt>
      <trkpt lat="49.88247" lon="1.08956">
        <ele>108.5</ele>
        <time>2013-08-15T06:31:47Z</time>
      </trkpt>
      <trkpt lat="49.88215" lon="1.08877">
        <ele>110.9</ele>
        <time>2013-08-15T06:32:03Z</time>
      </trkpt>
      <trkpt lat="49.8818" lon="1.08793">
        <ele>109.5</ele>
        <time>2013-08-15T06:32:19Z</time>
      </trkpt>
      <trkpt lat="49.88146" lon="1.08708">
        <ele>109.8</ele>
        <time>2013-08-15T06:32:38Z</time>
      </trkpt>
      <trkpt lat="49.88165" lon="1.08747">
        <ele>105.8</ele>
        <time>2013-08-15T06:35:24Z</time>
      </trkpt>
      <trkpt lat="49.88181" lon="1.08789">
        <ele>106.8</ele>
        <time>2013-08-15T06:35:32Z</time>
      </trkpt>
      <trkpt lat="49.88216" lon="1.08878">
        <ele>108.5</ele>
        <time>2013-08-15T06:35:48Z</time>
      </trkpt>
      <trkpt lat="49.88251" lon="1.08968">
        <ele>109.3</ele>
        <time>2013-08-15T06:36:04Z</time>
      </trkpt>
      <trkpt lat="49.88275" lon="1.09045">
        <ele>109</ele>
        <time>2013-08-15T06:36:23Z</time>
      </trkpt>
      <trkpt lat="49.88304" lon="1.09152">
        <ele>109</ele>
        <time>2013-08-15T06:36:42Z</time>
      </trkpt>
      <trkpt lat="49.88338" lon="1.09229">
        <ele>108.9</ele>
        <time>2013-08-15T06:36:58Z</time>
      </trkpt>
      <trkpt lat="49.88368" lon="1.09319">
        <ele>106</ele>
        <time>2013-08-15T06:37:14Z</time>
      </trkpt>
      <trkpt lat="49.88393" lon="1.09395">
        <ele>105.5</ele>
        <time>2013-08-15T06:37:27Z</time>
      </trkpt>
      <trkpt lat="49.88431" lon="1.09499">
        <ele>103.5</ele>
        <time>2013-08-15T06:37:46Z</time>
      </trkpt>
      <trkpt lat="49.88458" lon="1.09596">
        <ele>99.4</ele>
        <time>2013-08-15T06:38:02Z</time>
      </trkpt>
      <trkpt lat="49.88447" lon="1.0969">
        <ele>101.4</ele>
        <time>2013-08-15T06:38:22Z</time>
      </trkpt>
      <trkpt lat="49.88405" lon="1.09765">
        <ele>100.4</ele>
        <time>2013-08-15T06:38:38Z</time>
      </trkpt>
      <trkpt lat="49.8838" lon="1.09842">
        <ele>105</ele>
        <time>2013-08-15T06:38:57Z</time>
      </trkpt>
      <trkpt lat="49.88416" lon="1.09921">
        <ele>98.5</ele>
        <time>2013-08-15T06:39:14Z</time>
      </trkpt>
      <trkpt lat="49.88379" lon="1.09994">
        <ele>97.9</ele>
        <time>2013-08-15T06:39:26Z</time>
      </trkpt>
      <trkpt lat="49.88341" lon="1.10075">
        <ele>100.5</ele>
        <time>2013-08-15T06:39:41Z</time>
      </trkpt>
      <trkpt lat="49.88299" lon="1.10155">
        <ele>102.8</ele>
        <time>2013-08-15T06:39:57Z</time>
      </trkpt>
      <trkpt lat="49.88254" lon="1.10235">
        <ele>104.8</ele>
        <time>2013-08-15T06:40:13Z</time>
      </trkpt>
      <trkpt lat="49.8821" lon="1.10312">
        <ele>108</ele>
        <time>2013-08-15T06:40:29Z</time>
      </trkpt>
      <trkpt lat="49.88162" lon="1.10384">
        <ele>109.5</ele>
        <time>2013-08-15T06:40:46Z</time>
      </trkpt>
      <trkpt lat="49.88107" lon="1.10332">
        <ele>107.3</ele>
        <time>2013-08-15T06:41:04Z</time>
      </trkpt>
      <trkpt lat="49.8805" lon="1.10384">
        <ele>111</ele>
        <time>2013-08-15T06:41:20Z</time>
      </trkpt>
      <trkpt lat="49.8802" lon="1.10411">
        <ele>111.4</ele>
        <time>2013-08-15T06:41:28Z</time>
      </trkpt>
      <trkpt lat="49.8797" lon="1.10452">
        <ele>105</ele>
        <time>2013-08-15T06:41:40Z</time>
      </trkpt>
      <trkpt lat="49.87925" lon="1.10506">
        <ele>102.5</ele>
        <time>2013-08-15T06:41:52Z</time>
      </trkpt>
      <trkpt lat="49.87879" lon="1.10563">
        <ele>105</ele>
        <time>2013-08-15T06:42:04Z</time>
      </trkpt>
      <trkpt lat="49.87829" lon="1.10612">
        <ele>107</ele>
        <time>2013-08-15T06:42:16Z</time>
      </trkpt>
      <trkpt lat="49.8778" lon="1.10663">
        <ele>107.4</ele>
        <time>2013-08-15T06:42:28Z</time>
      </trkpt>
      <trkpt lat="49.87734" lon="1.10716">
        <ele>110.5</ele>
        <time>2013-08-15T06:42:40Z</time>
      </trkpt>
      <trkpt lat="49.87691" lon="1.10775">
        <ele>113.5</ele>
        <time>2013-08-15T06:42:52Z</time>
      </trkpt>
      <trkpt lat="49.87642" lon="1.10834">
        <ele>111.9</ele>
        <time>2013-08-15T06:43:04Z</time>
      </trkpt>
      <trkpt lat="49.87601" lon="1.10907">
        <ele>102.5</ele>
        <time>2013-08-15T06:43:16Z</time>
      </trkpt>
      <trkpt lat="49.87559" lon="1.10968">
        <ele>103.5</ele>
        <time>2013-08-15T06:43:28Z</time>
      </trkpt>
      <trkpt lat="49.87513" lon="1.11028">
        <ele>104.3</ele>
        <time>2013-08-15T06:43:40Z</time>
      </trkpt>
      <trkpt lat="49.87468" lon="1.11083">
        <ele>105.5</ele>
        <time>2013-08-15T06:43:52Z</time>
      </trkpt>
      <trkpt lat="49.87416" lon="1.11137">
        <ele>105.3</ele>
        <time>2013-08-15T06:44:09Z</time>
      </trkpt>
      <trkpt lat="49.87355" lon="1.11178">
        <ele>104.9</ele>
        <time>2013-08-15T06:44:29Z</time>
      </trkpt>
      <trkpt lat="49.87301" lon="1.11228">
        <ele>105.5</ele>
        <time>2013-08-15T06:44:43Z</time>
      </trkpt>
      <trkpt lat="49.87253" lon="1.11274">
        <ele>109.5</ele>
        <time>2013-08-15T06:44:55Z</time>
      </trkpt>
      <trkpt lat="49.8723" lon="1.11297">
        <ele>111.5</ele>
        <time>2013-08-15T06:45:01Z</time>
      </trkpt>
      <trkpt lat="49.87181" lon="1.11342">
        <ele>114.5</ele>
        <time>2013-08-15T06:45:13Z</time>
      </trkpt>
      <trkpt lat="49.87145" lon="1.11377">
        <ele>115</ele>
        <time>2013-08-15T06:45:22Z</time>
      </trkpt>
      <trkpt lat="49.8712" lon="1.11399">
        <ele>116</ele>
        <time>2013-08-15T06:45:28Z</time>
      </trkpt>
      <trkpt lat="49.8707" lon="1.11446">
        <ele>116.5</ele>
        <time>2013-08-15T06:45:40Z</time>
      </trkpt>
      <trkpt lat="49.87029" lon="1.11489">
        <ele>116</ele>
        <time>2013-08-15T06:45:51Z</time>
      </trkpt>
      <trkpt lat="49.86982" lon="1.11532">
        <ele>113.5</ele>
        <time>2013-08-15T06:46:03Z</time>
      </trkpt>
      <trkpt lat="49.86926" lon="1.11591">
        <ele>110.5</ele>
        <time>2013-08-15T06:46:19Z</time>
      </trkpt>
      <trkpt lat="49.86875" lon="1.11655">
        <ele>111.4</ele>
        <time>2013-08-15T06:46:40Z</time>
      </trkpt>
      <trkpt lat="49.86835" lon="1.11712">
        <ele>111.3</ele>
        <time>2013-08-15T06:46:53Z</time>
      </trkpt>
      <trkpt lat="49.86776" lon="1.11801">
        <ele>112</ele>
        <time>2013-08-15T06:47:12Z</time>
      </trkpt>
      <trkpt lat="49.86741" lon="1.11897">
        <ele>110.5</ele>
        <time>2013-08-15T06:47:28Z</time>
      </trkpt>
      <trkpt lat="49.86712" lon="1.11984">
        <ele>110.8</ele>
        <time>2013-08-15T06:47:42Z</time>
      </trkpt>
      <trkpt lat="49.86674" lon="1.1206">
        <ele>113</ele>
        <time>2013-08-15T06:47:56Z</time>
      </trkpt>
      <trkpt lat="49.86624" lon="1.12129">
        <ele>113</ele>
        <time>2013-08-15T06:48:11Z</time>
      </trkpt>
      <trkpt lat="49.86575" lon="1.12204">
        <ele>112</ele>
        <time>2013-08-15T06:48:27Z</time>
      </trkpt>
      <trkpt lat="49.86528" lon="1.12283">
        <ele>111.4</ele>
        <time>2013-08-15T06:48:43Z</time>
      </trkpt>
      <trkpt lat="49.86478" lon="1.12354">
        <ele>111.8</ele>
        <time>2013-08-15T06:48:59Z</time>
      </trkpt>
      <trkpt lat="49.86421" lon="1.12408">
        <ele>113.5</ele>
        <time>2013-08-15T06:49:15Z</time>
      </trkpt>
      <trkpt lat="49.86373" lon="1.12469">
        <ele>112.5</ele>
        <time>2013-08-15T06:49:31Z</time>
      </trkpt>
      <trkpt lat="49.8633" lon="1.1254">
        <ele>112.9</ele>
        <time>2013-08-15T06:49:45Z</time>
      </trkpt>
      <trkpt lat="49.86288" lon="1.12601">
        <ele>113.5</ele>
        <time>2013-08-15T06:49:57Z</time>
      </trkpt>
      <trkpt lat="49.86255" lon="1.12675">
        <ele>114.4</ele>
        <time>2013-08-15T06:50:10Z</time>
      </trkpt>
      <trkpt lat="49.86239" lon="1.12758">
        <ele>115</ele>
        <time>2013-08-15T06:50:22Z</time>
      </trkpt>
      <trkpt lat="49.86224" lon="1.1284">
        <ele>116.4</ele>
        <time>2013-08-15T06:50:34Z</time>
      </trkpt>
      <trkpt lat="49.86217" lon="1.12883">
        <ele>117</ele>
        <time>2013-08-15T06:50:40Z</time>
      </trkpt>
      <trkpt lat="49.86202" lon="1.1297">
        <ele>117.5</ele>
        <time>2013-08-15T06:50:52Z</time>
      </trkpt>
      <trkpt lat="49.86188" lon="1.1305">
        <ele>116.4</ele>
        <time>2013-08-15T06:51:04Z</time>
      </trkpt>
      <trkpt lat="49.86181" lon="1.13139">
        <ele>116</ele>
        <time>2013-08-15T06:51:16Z</time>
      </trkpt>
      <trkpt lat="49.86184" lon="1.13235">
        <ele>116.3</ele>
        <time>2013-08-15T06:51:28Z</time>
      </trkpt>
      <trkpt lat="49.86194" lon="1.13328">
        <ele>117.4</ele>
        <time>2013-08-15T06:51:40Z</time>
      </trkpt>
      <trkpt lat="49.86217" lon="1.13419">
        <ele>115.3</ele>
        <time>2013-08-15T06:51:51Z</time>
      </trkpt>
      <trkpt lat="49.86244" lon="1.135">
        <ele>112.4</ele>
        <time>2013-08-15T06:52:03Z</time>
      </trkpt>
      <trkpt lat="49.86281" lon="1.1357">
        <ele>108.5</ele>
        <time>2013-08-15T06:52:15Z</time>
      </trkpt>
      <trkpt lat="49.86307" lon="1.13653">
        <ele>108.5</ele>
        <time>2013-08-15T06:52:27Z</time>
      </trkpt>
      <trkpt lat="49.86321" lon="1.13738">
        <ele>108.4</ele>
        <time>2013-08-15T06:52:39Z</time>
      </trkpt>
      <trkpt lat="49.8633" lon="1.13829">
        <ele>104.9</ele>
        <time>2013-08-15T06:52:54Z</time>
      </trkpt>
      <trkpt lat="49.86328" lon="1.1392">
        <ele>90</ele>
        <time>2013-08-15T06:53:08Z</time>
      </trkpt>
      <trkpt lat="49.86363" lon="1.13982">
        <ele>82</ele>
        <time>2013-08-15T06:53:17Z</time>
      </trkpt>
      <trkpt lat="49.86404" lon="1.14052">
        <ele>73.5</ele>
        <time>2013-08-15T06:53:28Z</time>
      </trkpt>
      <trkpt lat="49.86424" lon="1.14137">
        <ele>70.3</ele>
        <time>2013-08-15T06:54:33Z</time>
      </trkpt>
      <trkpt lat="49.86416" lon="1.1423">
        <ele>56.7</ele>
        <time>2013-08-15T06:54:56Z</time>
      </trkpt>
      <trkpt lat="49.86464" lon="1.14286">
        <ele>48.7</ele>
        <time>2013-08-15T06:55:09Z</time>
      </trkpt>
      <trkpt lat="49.86511" lon="1.14353">
        <ele>44</ele>
        <time>2013-08-15T06:55:20Z</time>
      </trkpt>
      <trkpt lat="49.86553" lon="1.14415">
        <ele>40.5</ele>
        <time>2013-08-15T06:55:28Z</time>
      </trkpt>
      <trkpt lat="49.86608" lon="1.14479">
        <ele>36</ele>
        <time>2013-08-15T06:55:36Z</time>
      </trkpt>
      <trkpt lat="49.86623" lon="1.14497">
        <ele>34.5</ele>
        <time>2013-08-15T06:55:38Z</time>
      </trkpt>
      <trkpt lat="49.86666" lon="1.14555">
        <ele>29.5</ele>
        <time>2013-08-15T06:55:45Z</time>
      </trkpt>
      <trkpt lat="49.86698" lon="1.14605">
        <ele>25.2</ele>
        <time>2013-08-15T06:55:55Z</time>
      </trkpt>
      <trkpt lat="49.86668" lon="1.14679">
        <ele>27.2</ele>
        <time>2013-08-15T06:56:08Z</time>
      </trkpt>
      <trkpt lat="49.86634" lon="1.14762">
        <ele>30.1</ele>
        <time>2013-08-15T06:56:23Z</time>
      </trkpt>
      <trkpt lat="49.86619" lon="1.14799">
        <ele>30.1</ele>
        <time>2013-08-15T06:56:29Z</time>
      </trkpt>
      <trkpt lat="49.8659" lon="1.14878">
        <ele>31.2</ele>
        <time>2013-08-15T06:56:42Z</time>
      </trkpt>
      <trkpt lat="49.86562" lon="1.14954">
        <ele>33.4</ele>
        <time>2013-08-15T06:56:54Z</time>
      </trkpt>
      <trkpt lat="49.86546" lon="1.1499">
        <ele>33.7</ele>
        <time>2013-08-15T06:57:00Z</time>
      </trkpt>
      <trkpt lat="49.8651" lon="1.15077">
        <ele>33.5</ele>
        <time>2013-08-15T06:57:15Z</time>
      </trkpt>
      <trkpt lat="49.86476" lon="1.15162">
        <ele>33</ele>
        <time>2013-08-15T06:57:27Z</time>
      </trkpt>
      <trkpt lat="49.86446" lon="1.15237">
        <ele>32.4</ele>
        <time>2013-08-15T06:57:37Z</time>
      </trkpt>
      <trkpt lat="49.86422" lon="1.153">
        <ele>32.7</ele>
        <time>2013-08-15T06:57:46Z</time>
      </trkpt>
      <trkpt lat="49.86385" lon="1.15387">
        <ele>31.2</ele>
        <time>2013-08-15T06:57:58Z</time>
      </trkpt>
      <trkpt lat="49.86341" lon="1.15475">
        <ele>31.5</ele>
        <time>2013-08-15T06:58:10Z</time>
      </trkpt>
      <trkpt lat="49.86298" lon="1.1554">
        <ele>31.2</ele>
        <time>2013-08-15T06:58:20Z</time>
      </trkpt>
      <trkpt lat="49.8626" lon="1.15589">
        <ele>30.1</ele>
        <time>2013-08-15T06:58:28Z</time>
      </trkpt>
      <trkpt lat="49.8622" lon="1.15635">
        <ele>29.2</ele>
        <time>2013-08-15T06:58:36Z</time>
      </trkpt>
      <trkpt lat="49.862" lon="1.15658">
        <ele>29.7</ele>
        <time>2013-08-15T06:58:40Z</time>
      </trkpt>
      <trkpt lat="49.86153" lon="1.15713">
        <ele>30.2</ele>
        <time>2013-08-15T06:58:50Z</time>
      </trkpt>
      <trkpt lat="49.86099" lon="1.15777">
        <ele>31.2</ele>
        <time>2013-08-15T06:59:02Z</time>
      </trkpt>
      <trkpt lat="49.86049" lon="1.15837">
        <ele>30.7</ele>
        <time>2013-08-15T06:59:14Z</time>
      </trkpt>
      <trkpt lat="49.85997" lon="1.15894">
        <ele>31.7</ele>
        <time>2013-08-15T06:59:26Z</time>
      </trkpt>
      <trkpt lat="49.85984" lon="1.15909">
        <ele>31.7</ele>
        <time>2013-08-15T06:59:29Z</time>
      </trkpt>
      <trkpt lat="49.85928" lon="1.15973">
        <ele>33</ele>
        <time>2013-08-15T06:59:41Z</time>
      </trkpt>
      <trkpt lat="49.85872" lon="1.16035">
        <ele>32.5</ele>
        <time>2013-08-15T06:59:53Z</time>
      </trkpt>
      <trkpt lat="49.85812" lon="1.16086">
        <ele>32.7</ele>
        <time>2013-08-15T07:00:05Z</time>
      </trkpt>
      <trkpt lat="49.85747" lon="1.16125">
        <ele>34.5</ele>
        <time>2013-08-15T07:00:17Z</time>
      </trkpt>
      <trkpt lat="49.85714" lon="1.16161">
        <ele>32.4</ele>
        <time>2013-08-15T07:00:27Z</time>
      </trkpt>
      <trkpt lat="49.85763" lon="1.16216">
        <ele>26</ele>
        <time>2013-08-15T07:00:36Z</time>
      </trkpt>
      <trkpt lat="49.85827" lon="1.16242">
        <ele>20.2</ele>
        <time>2013-08-15T07:00:44Z</time>
      </trkpt>
      <trkpt lat="49.85889" lon="1.16234">
        <ele>17.2</ele>
        <time>2013-08-15T07:00:52Z</time>
      </trkpt>
      <trkpt lat="49.85946" lon="1.16198">
        <ele>12.1</ele>
        <time>2013-08-15T07:01:09Z</time>
      </trkpt>
      <trkpt lat="49.85982" lon="1.16256">
        <ele>17.2</ele>
        <time>2013-08-15T07:04:13Z</time>
      </trkpt>
      <trkpt lat="49.86017" lon="1.1636">
        <ele>16.7</ele>
        <time>2013-08-15T07:06:10Z</time>
      </trkpt>
      <trkpt lat="49.86054" lon="1.16444">
        <ele>21.7</ele>
        <time>2013-08-15T07:06:53Z</time>
      </trkpt>
      <trkpt lat="49.86055" lon="1.16534">
        <ele>19.2</ele>
        <time>2013-08-15T07:07:08Z</time>
      </trkpt>
      <trkpt lat="49.86065" lon="1.16435">
        <ele>16.7</ele>
        <time>2013-08-15T07:07:55Z</time>
      </trkpt>
      <trkpt lat="49.86112" lon="1.16379">
        <ele>13.5</ele>
        <time>2013-08-15T07:08:07Z</time>
      </trkpt>
      <trkpt lat="49.8617" lon="1.16336">
        <ele>11.1</ele>
        <time>2013-08-15T07:08:19Z</time>
      </trkpt>
      <trkpt lat="49.8621" lon="1.16393">
        <ele>13.3</ele>
        <time>2013-08-15T07:08:32Z</time>
      </trkpt>
      <trkpt lat="49.86225" lon="1.16481">
        <ele>15.5</ele>
        <time>2013-08-15T07:08:45Z</time>
      </trkpt>
      <trkpt lat="49.86265" lon="1.16518">
        <ele>17</ele>
        <time>2013-08-15T07:08:57Z</time>
      </trkpt>
      <trkpt lat="49.86324" lon="1.16551">
        <ele>16.2</ele>
        <time>2013-08-15T07:09:13Z</time>
      </trkpt>
      <trkpt lat="49.86365" lon="1.16617">
        <ele>17.1</ele>
        <time>2013-08-15T07:09:25Z</time>
      </trkpt>
      <trkpt lat="49.86414" lon="1.16666">
        <ele>17.2</ele>
        <time>2013-08-15T07:09:37Z</time>
      </trkpt>
      <trkpt lat="49.86439" lon="1.16688">
        <ele>16.2</ele>
        <time>2013-08-15T07:09:43Z</time>
      </trkpt>
      <trkpt lat="49.86477" lon="1.16752">
        <ele>16.7</ele>
        <time>2013-08-15T07:09:56Z</time>
      </trkpt>
      <trkpt lat="49.86502" lon="1.16845">
        <ele>14.5</ele>
        <time>2013-08-15T07:10:14Z</time>
      </trkpt>
      <trkpt lat="49.86528" lon="1.16935">
        <ele>14.5</ele>
        <time>2013-08-15T07:10:29Z</time>
      </trkpt>
      <trkpt lat="49.86573" lon="1.1701">
        <ele>11.3</ele>
        <time>2013-08-15T07:10:57Z</time>
      </trkpt>
      <trkpt lat="49.86608" lon="1.17055">
        <ele>14.5</ele>
        <time>2013-08-15T07:11:47Z</time>
      </trkpt>
      <trkpt lat="49.86639" lon="1.17131">
        <ele>16</ele>
        <time>2013-08-15T07:12:06Z</time>
      </trkpt>
      <trkpt lat="49.86682" lon="1.17178">
        <ele>15.6</ele>
        <time>2013-08-15T07:12:23Z</time>
      </trkpt>
      <trkpt lat="49.86652" lon="1.17257">
        <ele>16</ele>
        <time>2013-08-15T07:12:35Z</time>
      </trkpt>
      <trkpt lat="49.86625" lon="1.17338">
        <ele>16.5</ele>
        <time>2013-08-15T07:12:47Z</time>
      </trkpt>
      <trkpt lat="49.86596" lon="1.17418">
        <ele>16.7</ele>
        <time>2013-08-15T07:12:59Z</time>
      </trkpt>
      <trkpt lat="49.86572" lon="1.17487">
        <ele>15.6</ele>
        <time>2013-08-15T07:13:09Z</time>
      </trkpt>
      <trkpt lat="49.86537" lon="1.17582">
        <ele>14.8</ele>
        <time>2013-08-15T07:13:23Z</time>
      </trkpt>
      <trkpt lat="49.86502" lon="1.17661">
        <ele>16.6</ele>
        <time>2013-08-15T07:13:39Z</time>
      </trkpt>
      <trkpt lat="49.86439" lon="1.17626">
        <ele>17.1</ele>
        <time>2013-08-15T07:13:57Z</time>
      </trkpt>
      <trkpt lat="49.86391" lon="1.17594">
        <ele>18.7</ele>
        <time>2013-08-15T07:14:05Z</time>
      </trkpt>
      <trkpt lat="49.86346" lon="1.17564">
        <ele>20.1</ele>
        <time>2013-08-15T07:14:13Z</time>
      </trkpt>
      <trkpt lat="49.8629" lon="1.17526">
        <ele>20.7</ele>
        <time>2013-08-15T07:14:23Z</time>
      </trkpt>
      <trkpt lat="49.86229" lon="1.17484">
        <ele>21.7</ele>
        <time>2013-08-15T07:14:35Z</time>
      </trkpt>
      <trkpt lat="49.86184" lon="1.17411">
        <ele>21.2</ele>
        <time>2013-08-15T07:14:47Z</time>
      </trkpt>
      <trkpt lat="49.86157" lon="1.17332">
        <ele>19.2</ele>
        <time>2013-08-15T07:14:57Z</time>
      </trkpt>
      <trkpt lat="49.86119" lon="1.17257">
        <ele>20.7</ele>
        <time>2013-08-15T07:15:11Z</time>
      </trkpt>
      <trkpt lat="49.86073" lon="1.17318">
        <ele>31.2</ele>
        <time>2013-08-15T07:15:30Z</time>
      </trkpt>
      <trkpt lat="49.86069" lon="1.1737">
        <ele>33.2</ele>
        <time>2013-08-15T07:15:41Z</time>
      </trkpt>
      <trkpt lat="49.86094" lon="1.17437">
        <ele>34.7</ele>
        <time>2013-08-15T07:16:07Z</time>
      </trkpt>
      <trkpt lat="49.8611" lon="1.17528">
        <ele>43.5</ele>
        <time>2013-08-15T07:16:26Z</time>
      </trkpt>
      <trkpt lat="49.86112" lon="1.17619">
        <ele>39.2</ele>
        <time>2013-08-15T07:16:39Z</time>
      </trkpt>
      <trkpt lat="49.86104" lon="1.17715">
        <ele>45.5</ele>
        <time>2013-08-15T07:16:52Z</time>
      </trkpt>
      <trkpt lat="49.86105" lon="1.17799">
        <ele>52</ele>
        <time>2013-08-15T07:17:02Z</time>
      </trkpt>
      <trkpt lat="49.86104" lon="1.17898">
        <ele>48</ele>
        <time>2013-08-15T07:17:14Z</time>
      </trkpt>
      <trkpt lat="49.86106" lon="1.17982">
        <ele>47</ele>
        <time>2013-08-15T07:17:23Z</time>
      </trkpt>
      <trkpt lat="49.86113" lon="1.18068">
        <ele>48.5</ele>
        <time>2013-08-15T07:17:33Z</time>
      </trkpt>
      <trkpt lat="49.86101" lon="1.18166">
        <ele>45.7</ele>
        <time>2013-08-15T07:17:45Z</time>
      </trkpt>
      <trkpt lat="49.8609" lon="1.18242">
        <ele>42.2</ele>
        <time>2013-08-15T07:17:53Z</time>
      </trkpt>
      <trkpt lat="49.86084" lon="1.18326">
        <ele>41.2</ele>
        <time>2013-08-15T07:18:02Z</time>
      </trkpt>
      <trkpt lat="49.86079" lon="1.18418">
        <ele>41.9</ele>
        <time>2013-08-15T07:18:12Z</time>
      </trkpt>
      <trkpt lat="49.86066" lon="1.18486">
        <ele>41.7</ele>
        <time>2013-08-15T07:18:19Z</time>
      </trkpt>
      <trkpt lat="49.86039" lon="1.18575">
        <ele>43</ele>
        <time>2013-08-15T07:18:29Z</time>
      </trkpt>
      <trkpt lat="49.86022" lon="1.18652">
        <ele>39.7</ele>
        <time>2013-08-15T07:18:37Z</time>
      </trkpt>
      <trkpt lat="49.85999" lon="1.1873">
        <ele>38.7</ele>
        <time>2013-08-15T07:18:45Z</time>
      </trkpt>
      <trkpt lat="49.85979" lon="1.18812">
        <ele>38.4</ele>
        <time>2013-08-15T07:18:53Z</time>
      </trkpt>
      <trkpt lat="49.85959" lon="1.18889">
        <ele>39.2</ele>
        <time>2013-08-15T07:19:01Z</time>
      </trkpt>
      <trkpt lat="49.85934" lon="1.18955">
        <ele>36.7</ele>
        <time>2013-08-15T07:19:09Z</time>
      </trkpt>
      <trkpt lat="49.85896" lon="1.19014">
        <ele>35.7</ele>
        <time>2013-08-15T07:19:18Z</time>
      </trkpt>
      <trkpt lat="49.85851" lon="1.19083">
        <ele>37.5</ele>
        <time>2013-08-15T07:19:30Z</time>
      </trkpt>
      <trkpt lat="49.85802" lon="1.19157">
        <ele>38.2</ele>
        <time>2013-08-15T07:19:42Z</time>
      </trkpt>
      <trkpt lat="49.85765" lon="1.19222">
        <ele>36.2</ele>
        <time>2013-08-15T07:19:51Z</time>
      </trkpt>
      <trkpt lat="49.8573" lon="1.19291">
        <ele>36</ele>
        <time>2013-08-15T07:20:00Z</time>
      </trkpt>
      <trkpt lat="49.85683" lon="1.19372">
        <ele>36.7</ele>
        <time>2013-08-15T07:20:12Z</time>
      </trkpt>
      <trkpt lat="49.85643" lon="1.19447">
        <ele>37.4</ele>
        <time>2013-08-15T07:20:24Z</time>
      </trkpt>
      <trkpt lat="49.85606" lon="1.19524">
        <ele>39</ele>
        <time>2013-08-15T07:20:40Z</time>
      </trkpt>
      <trkpt lat="49.85573" lon="1.19616">
        <ele>41.2</ele>
        <time>2013-08-15T07:21:38Z</time>
      </trkpt>
      <trkpt lat="49.85537" lon="1.19697">
        <ele>44.2</ele>
        <time>2013-08-15T07:21:58Z</time>
      </trkpt>
      <trkpt lat="49.85494" lon="1.19745">
        <ele>42.7</ele>
        <time>2013-08-15T07:26:04Z</time>
      </trkpt>
      <trkpt lat="49.85424" lon="1.19679">
        <ele>58</ele>
        <time>2013-08-15T07:26:51Z</time>
      </trkpt>
      <trkpt lat="49.85364" lon="1.19628">
        <ele>70.5</ele>
        <time>2013-08-15T07:27:45Z</time>
      </trkpt>
      <trkpt lat="49.85335" lon="1.196">
        <ele>80.3</ele>
        <time>2013-08-15T07:28:42Z</time>
      </trkpt>
      <trkpt lat="49.85273" lon="1.19553">
        <ele>116</ele>
        <time>2013-08-15T07:29:45Z</time>
      </trkpt>
      <trkpt lat="49.85217" lon="1.19491">
        <ele>135.3</ele>
        <time>2013-08-15T07:31:48Z</time>
      </trkpt>
      <trkpt lat="49.85192" lon="1.19453">
        <ele>136.5</ele>
        <time>2013-08-15T07:33:47Z</time>
      </trkpt>
      <trkpt lat="49.85114" lon="1.19403">
        <ele>146.6</ele>
        <time>2013-08-15T07:35:19Z</time>
      </trkpt>
      <trkpt lat="49.85139" lon="1.19482">
        <ele>131.8</ele>
        <time>2013-08-15T07:38:43Z</time>
      </trkpt>
      <trkpt lat="49.85116" lon="1.19565">
        <ele>136.1</ele>
        <time>2013-08-15T07:39:11Z</time>
      </trkpt>
      <trkpt lat="49.85067" lon="1.19631">
        <ele>138.8</ele>
        <time>2013-08-15T07:39:32Z</time>
      </trkpt>
      <trkpt lat="49.8502" lon="1.19698">
        <ele>141.5</ele>
        <time>2013-08-15T07:39:56Z</time>
      </trkpt>
      <trkpt lat="49.8498" lon="1.19751">
        <ele>143</ele>
        <time>2013-08-15T07:40:47Z</time>
      </trkpt>
      <trkpt lat="49.84917" lon="1.19835">
        <ele>137.1</ele>
        <time>2013-08-15T07:41:16Z</time>
      </trkpt>
      <trkpt lat="49.84868" lon="1.19904">
        <ele>142</ele>
        <time>2013-08-15T07:41:37Z</time>
      </trkpt>
      <trkpt lat="49.84829" lon="1.19955">
        <ele>142</ele>
        <time>2013-08-15T07:41:50Z</time>
      </trkpt>
      <trkpt lat="49.84767" lon="1.2003">
        <ele>135.1</ele>
        <time>2013-08-15T07:42:11Z</time>
      </trkpt>
      <trkpt lat="49.84704" lon="1.20062">
        <ele>141.3</ele>
        <time>2013-08-15T07:42:34Z</time>
      </trkpt>
      <trkpt lat="49.84672" lon="1.20082">
        <ele>140.6</ele>
        <time>2013-08-15T07:42:51Z</time>
      </trkpt>
      <trkpt lat="49.84612" lon="1.20129">
        <ele>137.1</ele>
        <time>2013-08-15T07:45:03Z</time>
      </trkpt>
      <trkpt lat="49.84552" lon="1.20175">
        <ele>137.1</ele>
        <time>2013-08-15T07:45:24Z</time>
      </trkpt>
      <trkpt lat="49.84509" lon="1.20219">
        <ele>138.3</ele>
        <time>2013-08-15T07:45:54Z</time>
      </trkpt>
      <trkpt lat="49.84454" lon="1.20274">
        <ele>138.6</ele>
        <time>2013-08-15T07:46:18Z</time>
      </trkpt>
      <trkpt lat="49.84425" lon="1.20303">
        <ele>141.1</ele>
        <time>2013-08-15T07:46:29Z</time>
      </trkpt>
      <trkpt lat="49.8437" lon="1.20357">
        <ele>144.3</ele>
        <time>2013-08-15T07:47:31Z</time>
      </trkpt>
      <trkpt lat="49.84312" lon="1.20407">
        <ele>136.5</ele>
        <time>2013-08-15T07:47:53Z</time>
      </trkpt>
      <trkpt lat="49.84266" lon="1.20439">
        <ele>143.1</ele>
        <time>2013-08-15T07:48:24Z</time>
      </trkpt>
      <trkpt lat="49.84015" lon="1.20361">
        <ele>137.6</ele>
        <time>2013-08-15T07:52:19Z</time>
      </trkpt>
      <trkpt lat="49.83979" lon="1.20436">
        <ele>135.1</ele>
        <time>2013-08-15T07:52:33Z</time>
      </trkpt>
      <trkpt lat="49.83941" lon="1.205">
        <ele>133</ele>
        <time>2013-08-15T07:52:43Z</time>
      </trkpt>
      <trkpt lat="49.83915" lon="1.20545">
        <ele>132.1</ele>
        <time>2013-08-15T07:52:49Z</time>
      </trkpt>
      <trkpt lat="49.83871" lon="1.20616">
        <ele>133.5</ele>
        <time>2013-08-15T07:53:00Z</time>
      </trkpt>
      <trkpt lat="49.8385" lon="1.20649">
        <ele>135.6</ele>
        <time>2013-08-15T07:53:05Z</time>
      </trkpt>
      <trkpt lat="49.83806" lon="1.20723">
        <ele>135.6</ele>
        <time>2013-08-15T07:53:18Z</time>
      </trkpt>
      <trkpt lat="49.83766" lon="1.20794">
        <ele>134.1</ele>
        <time>2013-08-15T07:53:29Z</time>
      </trkpt>
      <trkpt lat="49.83738" lon="1.20838">
        <ele>135.1</ele>
        <time>2013-08-15T07:53:36Z</time>
      </trkpt>
      <trkpt lat="49.83694" lon="1.20919">
        <ele>139.1</ele>
        <time>2013-08-15T07:53:48Z</time>
      </trkpt>
      <trkpt lat="49.83654" lon="1.20984">
        <ele>140.8</ele>
        <time>2013-08-15T07:53:58Z</time>
      </trkpt>
      <trkpt lat="49.83612" lon="1.21052">
        <ele>139.6</ele>
        <time>2013-08-15T07:54:08Z</time>
      </trkpt>
      <trkpt lat="49.83579" lon="1.21097">
        <ele>142</ele>
        <time>2013-08-15T07:54:16Z</time>
      </trkpt>
      <trkpt lat="49.83535" lon="1.21156">
        <ele>141.3</ele>
        <time>2013-08-15T07:54:25Z</time>
      </trkpt>
      <trkpt lat="49.83553" lon="1.21246">
        <ele>137.8</ele>
        <time>2013-08-15T07:55:09Z</time>
      </trkpt>
      <trkpt lat="49.8355" lon="1.21349">
        <ele>118.5</ele>
        <time>2013-08-15T07:55:28Z</time>
      </trkpt>
      <trkpt lat="49.8357" lon="1.21437">
        <ele>105</ele>
        <time>2013-08-15T07:55:40Z</time>
      </trkpt>
      <trkpt lat="49.83599" lon="1.21502">
        <ele>91</ele>
        <time>2013-08-15T07:55:55Z</time>
      </trkpt>
      <trkpt lat="49.83575" lon="1.21538">
        <ele>75.9</ele>
        <time>2013-08-15T07:56:05Z</time>
      </trkpt>
      <trkpt lat="49.83582" lon="1.21631">
        <ele>90.5</ele>
        <time>2013-08-15T07:57:01Z</time>
      </trkpt>
      <trkpt lat="49.83613" lon="1.21697">
        <ele>83.5</ele>
        <time>2013-08-15T07:57:10Z</time>
      </trkpt>
      <trkpt lat="49.83643" lon="1.21758">
        <ele>77</ele>
        <time>2013-08-15T07:57:17Z</time>
      </trkpt>
      <trkpt lat="49.83682" lon="1.21859">
        <ele>66.5</ele>
        <time>2013-08-15T07:57:26Z</time>
      </trkpt>
      <trkpt lat="49.83699" lon="1.21917">
        <ele>61.5</ele>
        <time>2013-08-15T07:57:30Z</time>
      </trkpt>
      <trkpt lat="49.83714" lon="1.21974">
        <ele>57.9</ele>
        <time>2013-08-15T07:57:34Z</time>
      </trkpt>
      <trkpt lat="49.83728" lon="1.22017">
        <ele>54</ele>
        <time>2013-08-15T07:57:37Z</time>
      </trkpt>
      <trkpt lat="49.83753" lon="1.22101">
        <ele>41</ele>
        <time>2013-08-15T07:58:50Z</time>
      </trkpt>
      <trkpt lat="49.83797" lon="1.22024">
        <ele>43</ele>
        <time>2013-08-15T07:59:08Z</time>
      </trkpt>
      <trkpt lat="49.83822" lon="1.21933">
        <ele>43.7</ele>
        <time>2013-08-15T07:59:24Z</time>
      </trkpt>
      <trkpt lat="49.83845" lon="1.21836">
        <ele>44.5</ele>
        <time>2013-08-15T07:59:45Z</time>
      </trkpt>
      <trkpt lat="49.83888" lon="1.21772">
        <ele>44</ele>
        <time>2013-08-15T07:59:59Z</time>
      </trkpt>
      <trkpt lat="49.83941" lon="1.21727">
        <ele>42.7</ele>
        <time>2013-08-15T08:00:12Z</time>
      </trkpt>
      <trkpt lat="49.83997" lon="1.21681">
        <ele>40.9</ele>
        <time>2013-08-15T08:00:24Z</time>
      </trkpt>
      <trkpt lat="49.84053" lon="1.21634">
        <ele>39.2</ele>
        <time>2013-08-15T08:00:36Z</time>
      </trkpt>
      <trkpt lat="49.84075" lon="1.21616">
        <ele>38.2</ele>
        <time>2013-08-15T08:00:40Z</time>
      </trkpt>
      <trkpt lat="49.84132" lon="1.21573">
        <ele>37.4</ele>
        <time>2013-08-15T08:00:51Z</time>
      </trkpt>
      <trkpt lat="49.84183" lon="1.21566">
        <ele>33.4</ele>
        <time>2013-08-15T08:01:03Z</time>
      </trkpt>
      <trkpt lat="49.84221" lon="1.21636">
        <ele>29.1</ele>
        <time>2013-08-15T08:01:13Z</time>
      </trkpt>
      <trkpt lat="49.84252" lon="1.21701">
        <ele>27.5</ele>
        <time>2013-08-15T08:01:21Z</time>
      </trkpt>
      <trkpt lat="49.84293" lon="1.21791">
        <ele>26</ele>
        <time>2013-08-15T08:01:33Z</time>
      </trkpt>
      <trkpt lat="49.84333" lon="1.21877">
        <ele>27.5</ele>
        <time>2013-08-15T08:01:45Z</time>
      </trkpt>
      <trkpt lat="49.84366" lon="1.21951">
        <ele>29.2</ele>
        <time>2013-08-15T08:01:57Z</time>
      </trkpt>
      <trkpt lat="49.84406" lon="1.22028">
        <ele>28</ele>
        <time>2013-08-15T08:02:13Z</time>
      </trkpt>
      <trkpt lat="49.84451" lon="1.22092">
        <ele>27.2</ele>
        <time>2013-08-15T08:02:26Z</time>
      </trkpt>
      <trkpt lat="49.84498" lon="1.22154">
        <ele>32.2</ele>
        <time>2013-08-15T08:02:42Z</time>
      </trkpt>
      <trkpt lat="49.84543" lon="1.22225">
        <ele>35.9</ele>
        <time>2013-08-15T08:02:59Z</time>
      </trkpt>
      <trkpt lat="49.84597" lon="1.22205">
        <ele>37.7</ele>
        <time>2013-08-15T08:03:44Z</time>
      </trkpt>
      <trkpt lat="49.84621" lon="1.2218">
        <ele>37.5</ele>
        <time>2013-08-15T08:03:50Z</time>
      </trkpt>
      <trkpt lat="49.8466" lon="1.22106">
        <ele>35.5</ele>
        <time>2013-08-15T08:04:03Z</time>
      </trkpt>
      <trkpt lat="49.84699" lon="1.22028">
        <ele>32.7</ele>
        <time>2013-08-15T08:04:23Z</time>
      </trkpt>
      <trkpt lat="49.84734" lon="1.21982">
        <ele>34.4</ele>
        <time>2013-08-15T08:04:33Z</time>
      </trkpt>
      <trkpt lat="49.8478" lon="1.2191">
        <ele>33.5</ele>
        <time>2013-08-15T08:04:49Z</time>
      </trkpt>
      <trkpt lat="49.84818" lon="1.21837">
        <ele>33</ele>
        <time>2013-08-15T08:05:01Z</time>
      </trkpt>
      <trkpt lat="49.84858" lon="1.21767">
        <ele>31.7</ele>
        <time>2013-08-15T08:05:14Z</time>
      </trkpt>
      <trkpt lat="49.84915" lon="1.21806">
        <ele>37</ele>
        <time>2013-08-15T08:05:35Z</time>
      </trkpt>
      <trkpt lat="49.84966" lon="1.21865">
        <ele>42.4</ele>
        <time>2013-08-15T08:05:58Z</time>
      </trkpt>
      <trkpt lat="49.85021" lon="1.21927">
        <ele>48</ele>
        <time>2013-08-15T08:06:27Z</time>
      </trkpt>
      <trkpt lat="49.85073" lon="1.21995">
        <ele>57</ele>
        <time>2013-08-15T08:07:02Z</time>
      </trkpt>
      <trkpt lat="49.85116" lon="1.22075">
        <ele>70</ele>
        <time>2013-08-15T08:07:47Z</time>
      </trkpt>
      <trkpt lat="49.85112" lon="1.22172">
        <ele>80.9</ele>
        <time>2013-08-15T08:08:41Z</time>
      </trkpt>
      <trkpt lat="49.8512" lon="1.22271">
        <ele>87</ele>
        <time>2013-08-15T08:09:24Z</time>
      </trkpt>
      <trkpt lat="49.85155" lon="1.22318">
        <ele>97</ele>
        <time>2013-08-15T08:11:04Z</time>
      </trkpt>
      <trkpt lat="49.85137" lon="1.22447">
        <ele>109.8</ele>
        <time>2013-08-15T08:11:55Z</time>
      </trkpt>
      <trkpt lat="49.85121" lon="1.22552">
        <ele>117</ele>
        <time>2013-08-15T08:12:35Z</time>
      </trkpt>
      <trkpt lat="49.8511" lon="1.22635">
        <ele>125</ele>
        <time>2013-08-15T08:13:08Z</time>
      </trkpt>
      <trkpt lat="49.85102" lon="1.2271">
        <ele>131.6</ele>
        <time>2013-08-15T08:13:37Z</time>
      </trkpt>
      <trkpt lat="49.85102" lon="1.22784">
        <ele>136</ele>
        <time>2013-08-15T08:14:17Z</time>
      </trkpt>
      <trkpt lat="49.85176" lon="1.2284">
        <ele>152.8</ele>
        <time>2013-08-15T08:15:09Z</time>
      </trkpt>
      <trkpt lat="49.85224" lon="1.22915">
        <ele>158.8</ele>
        <time>2013-08-15T08:16:16Z</time>
      </trkpt>
      <trkpt lat="49.85277" lon="1.22979">
        <ele>154.1</ele>
        <time>2013-08-15T08:20:13Z</time>
      </trkpt>
      <trkpt lat="49.85326" lon="1.23045">
        <ele>147.6</ele>
        <time>2013-08-15T08:20:30Z</time>
      </trkpt>
      <trkpt lat="49.85375" lon="1.23105">
        <ele>152.5</ele>
        <time>2013-08-15T08:20:48Z</time>
      </trkpt>
      <trkpt lat="49.85413" lon="1.23145">
        <ele>147.1</ele>
        <time>2013-08-15T08:20:58Z</time>
      </trkpt>
      <trkpt lat="49.85468" lon="1.23191">
        <ele>138.3</ele>
        <time>2013-08-15T08:21:12Z</time>
      </trkpt>
      <trkpt lat="49.85496" lon="1.23214">
        <ele>138.1</ele>
        <time>2013-08-15T08:21:18Z</time>
      </trkpt>
      <trkpt lat="49.85556" lon="1.23247">
        <ele>143.8</ele>
        <time>2013-08-15T08:22:11Z</time>
      </trkpt>
      <trkpt lat="49.85614" lon="1.23265">
        <ele>139.3</ele>
        <time>2013-08-15T08:22:25Z</time>
      </trkpt>
      <trkpt lat="49.85654" lon="1.23278">
        <ele>135.8</ele>
        <time>2013-08-15T08:22:32Z</time>
      </trkpt>
      <trkpt lat="49.85709" lon="1.23299">
        <ele>132.1</ele>
        <time>2013-08-15T08:22:40Z</time>
      </trkpt>
      <trkpt lat="49.85737" lon="1.23303">
        <ele>130.1</ele>
        <time>2013-08-15T08:22:44Z</time>
      </trkpt>
      <trkpt lat="49.858" lon="1.23318">
        <ele>125</ele>
        <time>2013-08-15T08:22:55Z</time>
      </trkpt>
      <trkpt lat="49.85855" lon="1.23325">
        <ele>114.4</ele>
        <time>2013-08-15T08:23:05Z</time>
      </trkpt>
      <trkpt lat="49.859" lon="1.23321">
        <ele>108</ele>
        <time>2013-08-15T08:23:11Z</time>
      </trkpt>
      <trkpt lat="49.85931" lon="1.23315">
        <ele>102.4</ele>
        <time>2013-08-15T08:23:15Z</time>
      </trkpt>
      <trkpt lat="49.85993" lon="1.2329">
        <ele>95.9</ele>
        <time>2013-08-15T08:23:27Z</time>
      </trkpt>
      <trkpt lat="49.86035" lon="1.23223">
        <ele>95</ele>
        <time>2013-08-15T08:23:38Z</time>
      </trkpt>
      <trkpt lat="49.86066" lon="1.23224">
        <ele>93.5</ele>
        <time>2013-08-15T08:23:43Z</time>
      </trkpt>
      <trkpt lat="49.86107" lon="1.23227">
        <ele>90.9</ele>
        <time>2013-08-15T08:23:49Z</time>
      </trkpt>
      <trkpt lat="49.86161" lon="1.23233">
        <ele>86.4</ele>
        <time>2013-08-15T08:23:57Z</time>
      </trkpt>
      <trkpt lat="49.8622" lon="1.23239">
        <ele>82.8</ele>
        <time>2013-08-15T08:24:05Z</time>
      </trkpt>
      <trkpt lat="49.86243" lon="1.23242">
        <ele>81.5</ele>
        <time>2013-08-15T08:24:08Z</time>
      </trkpt>
      <trkpt lat="49.86309" lon="1.23266">
        <ele>77.5</ele>
        <time>2013-08-15T08:24:17Z</time>
      </trkpt>
      <trkpt lat="49.8635" lon="1.23288">
        <ele>76</ele>
        <time>2013-08-15T08:24:23Z</time>
      </trkpt>
      <trkpt lat="49.86415" lon="1.23317">
        <ele>71.5</ele>
        <time>2013-08-15T08:24:31Z</time>
      </trkpt>
      <trkpt lat="49.86451" lon="1.23332">
        <ele>68.9</ele>
        <time>2013-08-15T08:24:35Z</time>
      </trkpt>
      <trkpt lat="49.86471" lon="1.23339">
        <ele>67.5</ele>
        <time>2013-08-15T08:24:37Z</time>
      </trkpt>
      <trkpt lat="49.865" lon="1.23345">
        <ele>65.8</ele>
        <time>2013-08-15T08:24:40Z</time>
      </trkpt>
      <trkpt lat="49.86538" lon="1.23347">
        <ele>64.3</ele>
        <time>2013-08-15T08:24:44Z</time>
      </trkpt>
      <trkpt lat="49.86602" lon="1.23352">
        <ele>63.2</ele>
        <time>2013-08-15T08:24:53Z</time>
      </trkpt>
      <trkpt lat="49.86625" lon="1.23336">
        <ele>71</ele>
        <time>2013-08-15T08:25:14Z</time>
      </trkpt>
      <trkpt lat="49.8664" lon="1.23216">
        <ele>65.5</ele>
        <time>2013-08-15T08:26:02Z</time>
      </trkpt>
      <trkpt lat="49.86692" lon="1.23153">
        <ele>74</ele>
        <time>2013-08-15T08:26:29Z</time>
      </trkpt>
      <trkpt lat="49.86747" lon="1.23101">
        <ele>78.5</ele>
        <time>2013-08-15T08:26:56Z</time>
      </trkpt>
      <trkpt lat="49.86792" lon="1.23052">
        <ele>83.5</ele>
        <time>2013-08-15T08:27:19Z</time>
      </trkpt>
      <trkpt lat="49.86834" lon="1.23027">
        <ele>91.5</ele>
        <time>2013-08-15T08:27:42Z</time>
      </trkpt>
      <trkpt lat="49.86884" lon="1.23008">
        <ele>100.5</ele>
        <time>2013-08-15T08:28:10Z</time>
      </trkpt>
      <trkpt lat="49.86952" lon="1.23008">
        <ele>121.5</ele>
        <time>2013-08-15T08:28:52Z</time>
      </trkpt>
      <trkpt lat="49.86981" lon="1.23036">
        <ele>106.5</ele>
        <time>2013-08-15T08:29:43Z</time>
      </trkpt>
      <trkpt lat="49.87048" lon="1.23065">
        <ele>118</ele>
        <time>2013-08-15T08:30:50Z</time>
      </trkpt>
      <trkpt lat="49.87109" lon="1.23157">
        <ele>137.6</ele>
        <time>2013-08-15T08:32:23Z</time>
      </trkpt>
      <trkpt lat="49.87152" lon="1.23205">
        <ele>143.8</ele>
        <time>2013-08-15T08:32:59Z</time>
      </trkpt>
      <trkpt lat="49.8723" lon="1.23237">
        <ele>140</ele>
        <time>2013-08-15T08:33:45Z</time>
      </trkpt>
      <trkpt lat="49.87299" lon="1.23236">
        <ele>142.1</ele>
        <time>2013-08-15T08:34:16Z</time>
      </trkpt>
      <trkpt lat="49.87349" lon="1.23227">
        <ele>142.6</ele>
        <time>2013-08-15T08:34:39Z</time>
      </trkpt>
      <trkpt lat="49.87401" lon="1.23207">
        <ele>144.1</ele>
        <time>2013-08-15T08:35:06Z</time>
      </trkpt>
      <trkpt lat="49.87473" lon="1.2319">
        <ele>148.5</ele>
        <time>2013-08-15T08:38:13Z</time>
      </trkpt>
      <trkpt lat="49.87532" lon="1.23244">
        <ele>146</ele>
        <time>2013-08-15T08:38:29Z</time>
      </trkpt>
      <trkpt lat="49.8759" lon="1.23298">
        <ele>145.6</ele>
        <time>2013-08-15T08:38:45Z</time>
      </trkpt>
      <trkpt lat="49.87617" lon="1.23322">
        <ele>146</ele>
        <time>2013-08-15T08:38:53Z</time>
      </trkpt>
      <trkpt lat="49.8765" lon="1.23397">
        <ele>148.1</ele>
        <time>2013-08-15T08:39:17Z</time>
      </trkpt>
      <trkpt lat="49.87634" lon="1.2349">
        <ele>147.8</ele>
        <time>2013-08-15T08:39:32Z</time>
      </trkpt>
      <trkpt lat="49.87623" lon="1.23584">
        <ele>148.6</ele>
        <time>2013-08-15T08:39:46Z</time>
      </trkpt>
      <trkpt lat="49.87627" lon="1.2366">
        <ele>151.1</ele>
        <time>2013-08-15T08:40:01Z</time>
      </trkpt>
      <trkpt lat="49.87697" lon="1.23681">
        <ele>147</ele>
        <time>2013-08-15T08:40:14Z</time>
      </trkpt>
      <trkpt lat="49.87756" lon="1.23698">
        <ele>143.1</ele>
        <time>2013-08-15T08:40:27Z</time>
      </trkpt>
      <trkpt lat="49.87824" lon="1.23714">
        <ele>143.6</ele>
        <time>2013-08-15T08:40:44Z</time>
      </trkpt>
      <trkpt lat="49.87887" lon="1.23732">
        <ele>143.1</ele>
        <time>2013-08-15T08:40:56Z</time>
      </trkpt>
      <trkpt lat="49.8793" lon="1.23746">
        <ele>141.8</ele>
        <time>2013-08-15T08:41:03Z</time>
      </trkpt>
      <trkpt lat="49.87974" lon="1.23759">
        <ele>140.3</ele>
        <time>2013-08-15T08:41:10Z</time>
      </trkpt>
      <trkpt lat="49.88001" lon="1.23766">
        <ele>139.6</ele>
        <time>2013-08-15T08:41:14Z</time>
      </trkpt>
      <trkpt lat="49.88053" lon="1.23782">
        <ele>139.1</ele>
        <time>2013-08-15T08:41:22Z</time>
      </trkpt>
      <trkpt lat="49.88109" lon="1.238">
        <ele>138.8</ele>
        <time>2013-08-15T08:41:31Z</time>
      </trkpt>
      <trkpt lat="49.88173" lon="1.23805">
        <ele>136.8</ele>
        <time>2013-08-15T08:41:44Z</time>
      </trkpt>
      <trkpt lat="49.88145" lon="1.23721">
        <ele>134.1</ele>
        <time>2013-08-15T08:41:57Z</time>
      </trkpt>
      <trkpt lat="49.88116" lon="1.23662">
        <ele>133.1</ele>
        <time>2013-08-15T08:42:05Z</time>
      </trkpt>
      <trkpt lat="49.88113" lon="1.23556">
        <ele>132.8</ele>
        <time>2013-08-15T08:42:18Z</time>
      </trkpt>
      <trkpt lat="49.8812" lon="1.23455">
        <ele>135.6</ele>
        <time>2013-08-15T08:42:31Z</time>
      </trkpt>
      <trkpt lat="49.88105" lon="1.23362">
        <ele>139.5</ele>
        <time>2013-08-15T08:42:44Z</time>
      </trkpt>
      <trkpt lat="49.88098" lon="1.23315">
        <ele>141</ele>
        <time>2013-08-15T08:42:50Z</time>
      </trkpt>
      <trkpt lat="49.88092" lon="1.23219">
        <ele>143</ele>
        <time>2013-08-15T08:43:02Z</time>
      </trkpt>
      <trkpt lat="49.88096" lon="1.23142">
        <ele>141.3</ele>
        <time>2013-08-15T08:43:11Z</time>
      </trkpt>
      <trkpt lat="49.88106" lon="1.2304">
        <ele>136.1</ele>
        <time>2013-08-15T08:43:23Z</time>
      </trkpt>
      <trkpt lat="49.88116" lon="1.22965">
        <ele>134.6</ele>
        <time>2013-08-15T08:43:31Z</time>
      </trkpt>
      <trkpt lat="49.88125" lon="1.22889">
        <ele>133.3</ele>
        <time>2013-08-15T08:43:39Z</time>
      </trkpt>
      <trkpt lat="49.8813" lon="1.22851">
        <ele>133.1</ele>
        <time>2013-08-15T08:43:43Z</time>
      </trkpt>
      <trkpt lat="49.88111" lon="1.22783">
        <ele>135.8</ele>
        <time>2013-08-15T08:43:57Z</time>
      </trkpt>
      <trkpt lat="49.88059" lon="1.22776">
        <ele>135.3</ele>
        <time>2013-08-15T08:44:07Z</time>
      </trkpt>
      <trkpt lat="49.8802" lon="1.22771">
        <ele>135.6</ele>
        <time>2013-08-15T08:44:16Z</time>
      </trkpt>
      <trkpt lat="49.87953" lon="1.2276">
        <ele>133.6</ele>
        <time>2013-08-15T08:44:44Z</time>
      </trkpt>
      <trkpt lat="49.87954" lon="1.22683">
        <ele>133.8</ele>
        <time>2013-08-15T08:45:10Z</time>
      </trkpt>
      <trkpt lat="49.87966" lon="1.22593">
        <ele>134.5</ele>
        <time>2013-08-15T08:45:21Z</time>
      </trkpt>
      <trkpt lat="49.87977" lon="1.22502">
        <ele>135</ele>
        <time>2013-08-15T08:45:31Z</time>
      </trkpt>
      <trkpt lat="49.8799" lon="1.2241">
        <ele>138.3</ele>
        <time>2013-08-15T08:45:43Z</time>
      </trkpt>
      <trkpt lat="49.88002" lon="1.22315">
        <ele>137.1</ele>
        <time>2013-08-15T08:45:55Z</time>
      </trkpt>
      <trkpt lat="49.88016" lon="1.22221">
        <ele>136.1</ele>
        <time>2013-08-15T08:46:12Z</time>
      </trkpt>
      <trkpt lat="49.88081" lon="1.22225">
        <ele>133.1</ele>
        <time>2013-08-15T08:46:27Z</time>
      </trkpt>
      <trkpt lat="49.8815" lon="1.22239">
        <ele>132.5</ele>
        <time>2013-08-15T08:46:39Z</time>
      </trkpt>
      <trkpt lat="49.88197" lon="1.22251">
        <ele>132.3</ele>
        <time>2013-08-15T08:46:47Z</time>
      </trkpt>
      <trkpt lat="49.88258" lon="1.22276">
        <ele>132.3</ele>
        <time>2013-08-15T08:46:58Z</time>
      </trkpt>
      <trkpt lat="49.88299" lon="1.22257">
        <ele>132.3</ele>
        <time>2013-08-15T08:47:13Z</time>
      </trkpt>
      <trkpt lat="49.88332" lon="1.22174">
        <ele>134.6</ele>
        <time>2013-08-15T08:47:25Z</time>
      </trkpt>
      <trkpt lat="49.88379" lon="1.22109">
        <ele>134</ele>
        <time>2013-08-15T08:47:37Z</time>
      </trkpt>
      <trkpt lat="49.88429" lon="1.22051">
        <ele>133.6</ele>
        <time>2013-08-15T08:47:48Z</time>
      </trkpt>
      <trkpt lat="49.88482" lon="1.21991">
        <ele>133.6</ele>
        <time>2013-08-15T08:47:59Z</time>
      </trkpt>
      <trkpt lat="49.88535" lon="1.21933">
        <ele>133</ele>
        <time>2013-08-15T08:48:11Z</time>
      </trkpt>
      <trkpt lat="49.88585" lon="1.21877">
        <ele>132.6</ele>
        <time>2013-08-15T08:48:23Z</time>
      </trkpt>
      <trkpt lat="49.88634" lon="1.21822">
        <ele>131.8</ele>
        <time>2013-08-15T08:48:35Z</time>
      </trkpt>
      <trkpt lat="49.88682" lon="1.21765">
        <ele>131.6</ele>
        <time>2013-08-15T08:48:47Z</time>
      </trkpt>
      <trkpt lat="49.88728" lon="1.21697">
        <ele>131.1</ele>
        <time>2013-08-15T08:48:59Z</time>
      </trkpt>
      <trkpt lat="49.88768" lon="1.21627">
        <ele>130.8</ele>
        <time>2013-08-15T08:49:11Z</time>
      </trkpt>
      <trkpt lat="49.88806" lon="1.21553">
        <ele>132.3</ele>
        <time>2013-08-15T08:50:06Z</time>
      </trkpt>
      <trkpt lat="49.88841" lon="1.21493">
        <ele>132</ele>
        <time>2013-08-15T08:50:19Z</time>
      </trkpt>
      <trkpt lat="49.8889" lon="1.2141">
        <ele>130.3</ele>
        <time>2013-08-15T08:50:35Z</time>
      </trkpt>
      <trkpt lat="49.88912" lon="1.21371">
        <ele>129.6</ele>
        <time>2013-08-15T08:50:43Z</time>
      </trkpt>
      <trkpt lat="49.88958" lon="1.21297">
        <ele>128.3</ele>
        <time>2013-08-15T08:50:58Z</time>
      </trkpt>
      <trkpt lat="49.88997" lon="1.21223">
        <ele>126</ele>
        <time>2013-08-15T08:51:25Z</time>
      </trkpt>
      <trkpt lat="49.89045" lon="1.21158">
        <ele>124.3</ele>
        <time>2013-08-15T08:51:52Z</time>
      </trkpt>
      <trkpt lat="49.89111" lon="1.21132">
        <ele>119.5</ele>
        <time>2013-08-15T08:52:41Z</time>
      </trkpt>
      <trkpt lat="49.89162" lon="1.21153">
        <ele>122.4</ele>
        <time>2013-08-15T08:53:54Z</time>
      </trkpt>
      <trkpt lat="49.89242" lon="1.21166">
        <ele>112.3</ele>
        <time>2013-08-15T08:54:31Z</time>
      </trkpt>
      <trkpt lat="49.89307" lon="1.21188">
        <ele>119</ele>
        <time>2013-08-15T08:55:00Z</time>
      </trkpt>
      <trkpt lat="49.89373" lon="1.21198">
        <ele>123</ele>
        <time>2013-08-15T08:55:28Z</time>
      </trkpt>
      <trkpt lat="49.89435" lon="1.21215">
        <ele>113.5</ele>
        <time>2013-08-15T08:55:49Z</time>
      </trkpt>
      <trkpt lat="49.895" lon="1.21239">
        <ele>121</ele>
        <time>2013-08-15T08:56:33Z</time>
      </trkpt>
      <trkpt lat="49.89516" lon="1.21251">
        <ele>115</ele>
        <time>2013-08-15T08:56:48Z</time>
      </trkpt>
      <trkpt lat="49.89572" lon="1.21306">
        <ele>127</ele>
        <time>2013-08-15T08:58:59Z</time>
      </trkpt>
      <trkpt lat="49.89518" lon="1.21244">
        <ele>127.8</ele>
        <time>2013-08-15T09:01:23Z</time>
      </trkpt>
      <trkpt lat="49.89456" lon="1.2119">
        <ele>117</ele>
        <time>2013-08-15T09:02:34Z</time>
      </trkpt>
      <trkpt lat="49.89388" lon="1.21178">
        <ele>122</ele>
        <time>2013-08-15T09:04:38Z</time>
      </trkpt>
      <trkpt lat="49.89334" lon="1.21168">
        <ele>121.5</ele>
        <time>2013-08-15T09:06:07Z</time>
      </trkpt>
      <trkpt lat="49.89315" lon="1.21077">
        <ele>134.8</ele>
        <time>2013-08-15T09:09:10Z</time>
      </trkpt>
      <trkpt lat="49.89249" lon="1.21051">
        <ele>126.4</ele>
        <time>2013-08-15T09:09:45Z</time>
      </trkpt>
      <trkpt lat="49.89189" lon="1.21007">
        <ele>118.4</ele>
        <time>2013-08-15T09:10:24Z</time>
      </trkpt>
      <trkpt lat="49.89168" lon="1.20938">
        <ele>129.5</ele>
        <time>2013-08-15T09:11:33Z</time>
      </trkpt>
      <trkpt lat="49.89219" lon="1.20837">
        <ele>124</ele>
        <time>2013-08-15T09:12:52Z</time>
      </trkpt>
      <trkpt lat="49.89242" lon="1.20774">
        <ele>133.1</ele>
        <time>2013-08-15T09:13:09Z</time>
      </trkpt>
      <trkpt lat="49.89269" lon="1.20684">
        <ele>131.3</ele>
        <time>2013-08-15T09:13:31Z</time>
      </trkpt>
      <trkpt lat="49.89299" lon="1.20599">
        <ele>129.6</ele>
        <time>2013-08-15T09:13:56Z</time>
      </trkpt>
      <trkpt lat="49.89324" lon="1.20513">
        <ele>128.3</ele>
        <time>2013-08-15T09:14:10Z</time>
      </trkpt>
      <trkpt lat="49.89344" lon="1.20417">
        <ele>133.8</ele>
        <time>2013-08-15T09:14:26Z</time>
      </trkpt>
      <trkpt lat="49.89379" lon="1.20334">
        <ele>133.1</ele>
        <time>2013-08-15T09:14:42Z</time>
      </trkpt>
      <trkpt lat="49.8933" lon="1.20277">
        <ele>150.8</ele>
        <time>2013-08-15T09:14:59Z</time>
      </trkpt>
      <trkpt lat="49.89273" lon="1.20237">
        <ele>157.1</ele>
        <time>2013-08-15T09:15:18Z</time>
      </trkpt>
      <trkpt lat="49.89222" lon="1.20206">
        <ele>158.6</ele>
        <time>2013-08-15T09:15:30Z</time>
      </trkpt>
      <trkpt lat="49.89163" lon="1.20164">
        <ele>153.6</ele>
        <time>2013-08-15T09:15:45Z</time>
      </trkpt>
      <trkpt lat="49.89109" lon="1.2013">
        <ele>149.6</ele>
        <time>2013-08-15T09:15:57Z</time>
      </trkpt>
      <trkpt lat="49.8908" lon="1.20109">
        <ele>143.3</ele>
        <time>2013-08-15T09:16:05Z</time>
      </trkpt>
      <trkpt lat="49.89049" lon="1.20088">
        <ele>148.3</ele>
        <time>2013-08-15T09:16:11Z</time>
      </trkpt>
      <trkpt lat="49.88989" lon="1.20048">
        <ele>146.8</ele>
        <time>2013-08-15T09:16:23Z</time>
      </trkpt>
      <trkpt lat="49.88933" lon="1.20005">
        <ele>145.8</ele>
        <time>2013-08-15T09:16:34Z</time>
      </trkpt>
      <trkpt lat="49.88872" lon="1.19962">
        <ele>147.6</ele>
        <time>2013-08-15T09:16:46Z</time>
      </trkpt>
      <trkpt lat="49.88816" lon="1.19923">
        <ele>144.1</ele>
        <time>2013-08-15T09:16:58Z</time>
      </trkpt>
      <trkpt lat="49.88763" lon="1.19888">
        <ele>144.8</ele>
        <time>2013-08-15T09:17:10Z</time>
      </trkpt>
      <trkpt lat="49.88707" lon="1.19847">
        <ele>139.1</ele>
        <time>2013-08-15T09:17:24Z</time>
      </trkpt>
      <trkpt lat="49.88683" lon="1.19795">
        <ele>151</ele>
        <time>2013-08-15T09:18:11Z</time>
      </trkpt>
      <trkpt lat="49.88721" lon="1.19688">
        <ele>125</ele>
        <time>2013-08-15T09:18:28Z</time>
      </trkpt>
      <trkpt lat="49.88762" lon="1.19611">
        <ele>127.4</ele>
        <time>2013-08-15T09:18:47Z</time>
      </trkpt>
      <trkpt lat="49.88784" lon="1.19517">
        <ele>132.1</ele>
        <time>2013-08-15T09:19:06Z</time>
      </trkpt>
      <trkpt lat="49.88809" lon="1.19444">
        <ele>137.1</ele>
        <time>2013-08-15T09:19:16Z</time>
      </trkpt>
      <trkpt lat="49.88836" lon="1.19363">
        <ele>140.3</ele>
        <time>2013-08-15T09:19:28Z</time>
      </trkpt>
      <trkpt lat="49.88854" lon="1.19323">
        <ele>137.6</ele>
        <time>2013-08-15T09:19:36Z</time>
      </trkpt>
      <trkpt lat="49.88883" lon="1.19238">
        <ele>135.3</ele>
        <time>2013-08-15T09:19:52Z</time>
      </trkpt>
      <trkpt lat="49.88905" lon="1.1917">
        <ele>138.8</ele>
        <time>2013-08-15T09:20:06Z</time>
      </trkpt>
      <trkpt lat="49.88923" lon="1.19103">
        <ele>138</ele>
        <time>2013-08-15T09:20:15Z</time>
      </trkpt>
      <trkpt lat="49.88958" lon="1.19003">
        <ele>132.8</ele>
        <time>2013-08-15T09:20:26Z</time>
      </trkpt>
      <trkpt lat="49.88969" lon="1.18962">
        <ele>132</ele>
        <time>2013-08-15T09:20:30Z</time>
      </trkpt>
      <trkpt lat="49.89" lon="1.18881">
        <ele>134.8</ele>
        <time>2013-08-15T09:20:38Z</time>
      </trkpt>
      <trkpt lat="49.89027" lon="1.18798">
        <ele>133.6</ele>
        <time>2013-08-15T09:20:52Z</time>
      </trkpt>
      <trkpt lat="49.89057" lon="1.18713">
        <ele>129.3</ele>
        <time>2013-08-15T09:21:04Z</time>
      </trkpt>
      <trkpt lat="49.89071" lon="1.18631">
        <ele>126.5</ele>
        <time>2013-08-15T09:21:13Z</time>
      </trkpt>
      <trkpt lat="49.89081" lon="1.18538">
        <ele>131.1</ele>
        <time>2013-08-15T09:21:26Z</time>
      </trkpt>
      <trkpt lat="49.89086" lon="1.18444">
        <ele>128.3</ele>
        <time>2013-08-15T09:21:38Z</time>
      </trkpt>
      <trkpt lat="49.89099" lon="1.18354">
        <ele>128.6</ele>
        <time>2013-08-15T09:21:48Z</time>
      </trkpt>
      <trkpt lat="49.89105" lon="1.18261">
        <ele>127.9</ele>
        <time>2013-08-15T09:21:59Z</time>
      </trkpt>
      <trkpt lat="49.891" lon="1.18183">
        <ele>124.3</ele>
        <time>2013-08-15T09:22:34Z</time>
      </trkpt>
      <trkpt lat="49.89102" lon="1.18204">
        <ele>132.5</ele>
        <time>2013-08-15T09:23:19Z</time>
      </trkpt>
      <trkpt lat="49.8913" lon="1.18114">
        <ele>133.3</ele>
        <time>2013-08-15T09:23:36Z</time>
      </trkpt>
      <trkpt lat="49.89138" lon="1.1807">
        <ele>131.5</ele>
        <time>2013-08-15T09:23:40Z</time>
      </trkpt>
      <trkpt lat="49.89146" lon="1.17974">
        <ele>132.8</ele>
        <time>2013-08-15T09:23:56Z</time>
      </trkpt>
      <trkpt lat="49.89136" lon="1.17886">
        <ele>124.3</ele>
        <time>2013-08-15T09:24:12Z</time>
      </trkpt>
      <trkpt lat="49.89148" lon="1.17815">
        <ele>113.5</ele>
        <time>2013-08-15T09:24:25Z</time>
      </trkpt>
      <trkpt lat="49.89163" lon="1.17717">
        <ele>115</ele>
        <time>2013-08-15T09:24:44Z</time>
      </trkpt>
      <trkpt lat="49.892" lon="1.17632">
        <ele>118.8</ele>
        <time>2013-08-15T09:25:03Z</time>
      </trkpt>
      <trkpt lat="49.89216" lon="1.17538">
        <ele>131.3</ele>
        <time>2013-08-15T09:25:20Z</time>
      </trkpt>
      <trkpt lat="49.89214" lon="1.17453">
        <ele>133.8</ele>
        <time>2013-08-15T09:25:29Z</time>
      </trkpt>
      <trkpt lat="49.89221" lon="1.17365">
        <ele>134.6</ele>
        <time>2013-08-15T09:25:38Z</time>
      </trkpt>
      <trkpt lat="49.89223" lon="1.1728">
        <ele>134.6</ele>
        <time>2013-08-15T09:25:47Z</time>
      </trkpt>
      <trkpt lat="49.89219" lon="1.17189">
        <ele>129.5</ele>
        <time>2013-08-15T09:25:58Z</time>
      </trkpt>
      <trkpt lat="49.89226" lon="1.17109">
        <ele>128.1</ele>
        <time>2013-08-15T09:26:05Z</time>
      </trkpt>
      <trkpt lat="49.89238" lon="1.17016">
        <ele>131</ele>
        <time>2013-08-15T09:26:17Z</time>
      </trkpt>
      <trkpt lat="49.8924" lon="1.16923">
        <ele>124.5</ele>
        <time>2013-08-15T09:26:27Z</time>
      </trkpt>
      <trkpt lat="49.89254" lon="1.1685">
        <ele>123.8</ele>
        <time>2013-08-15T09:26:35Z</time>
      </trkpt>
      <trkpt lat="49.89272" lon="1.16764">
        <ele>116.3</ele>
        <time>2013-08-15T09:26:45Z</time>
      </trkpt>
      <trkpt lat="49.8928" lon="1.16716">
        <ele>111.5</ele>
        <time>2013-08-15T09:26:49Z</time>
      </trkpt>
      <trkpt lat="49.89284" lon="1.16634">
        <ele>121</ele>
        <time>2013-08-15T09:26:57Z</time>
      </trkpt>
      <trkpt lat="49.89282" lon="1.1654">
        <ele>122.5</ele>
        <time>2013-08-15T09:27:08Z</time>
      </trkpt>
      <trkpt lat="49.89278" lon="1.16497">
        <ele>122.3</ele>
        <time>2013-08-15T09:27:12Z</time>
      </trkpt>
      <trkpt lat="49.89295" lon="1.16414">
        <ele>113.4</ele>
        <time>2013-08-15T09:27:22Z</time>
      </trkpt>
      <trkpt lat="49.89294" lon="1.16321">
        <ele>97</ele>
        <time>2013-08-15T09:30:06Z</time>
      </trkpt>
      <trkpt lat="49.89296" lon="1.16224">
        <ele>107</ele>
        <time>2013-08-15T09:30:17Z</time>
      </trkpt>
      <trkpt lat="49.89329" lon="1.1613">
        <ele>122.4</ele>
        <time>2013-08-15T09:30:29Z</time>
      </trkpt>
      <trkpt lat="49.89362" lon="1.16068">
        <ele>121.3</ele>
        <time>2013-08-15T09:30:38Z</time>
      </trkpt>
      <trkpt lat="49.89396" lon="1.15997">
        <ele>119.5</ele>
        <time>2013-08-15T09:30:48Z</time>
      </trkpt>
      <trkpt lat="49.89413" lon="1.15965">
        <ele>117.5</ele>
        <time>2013-08-15T09:30:52Z</time>
      </trkpt>
      <trkpt lat="49.89444" lon="1.15909">
        <ele>105.5</ele>
        <time>2013-08-15T09:30:59Z</time>
      </trkpt>
      <trkpt lat="49.89465" lon="1.15869">
        <ele>100.9</ele>
        <time>2013-08-15T09:31:04Z</time>
      </trkpt>
      <trkpt lat="49.89501" lon="1.15808">
        <ele>98.3</ele>
        <time>2013-08-15T09:31:13Z</time>
      </trkpt>
      <trkpt lat="49.89477" lon="1.15733">
        <ele>99</ele>
        <time>2013-08-15T09:31:24Z</time>
      </trkpt>
      <trkpt lat="49.89435" lon="1.15683">
        <ele>101</ele>
        <time>2013-08-15T09:31:32Z</time>
      </trkpt>
      <trkpt lat="49.89391" lon="1.15624">
        <ele>110</ele>
        <time>2013-08-15T09:31:41Z</time>
      </trkpt>
      <trkpt lat="49.89342" lon="1.15571">
        <ele>115.4</ele>
        <time>2013-08-15T09:31:49Z</time>
      </trkpt>
      <trkpt lat="49.89304" lon="1.15527">
        <ele>113.5</ele>
        <time>2013-08-15T09:31:57Z</time>
      </trkpt>
      <trkpt lat="49.8927" lon="1.15482">
        <ele>113.5</ele>
        <time>2013-08-15T09:32:06Z</time>
      </trkpt>
      <trkpt lat="49.89243" lon="1.15393">
        <ele>100.8</ele>
        <time>2013-08-15T09:32:18Z</time>
      </trkpt>
      <trkpt lat="49.89213" lon="1.15317">
        <ele>100.4</ele>
        <time>2013-08-15T09:32:27Z</time>
      </trkpt>
      <trkpt lat="49.89188" lon="1.15243">
        <ele>102</ele>
        <time>2013-08-15T09:32:35Z</time>
      </trkpt>
      <trkpt lat="49.89159" lon="1.15161">
        <ele>98.3</ele>
        <time>2013-08-15T09:32:46Z</time>
      </trkpt>
      <trkpt lat="49.89157" lon="1.15072">
        <ele>102.8</ele>
        <time>2013-08-15T09:33:11Z</time>
      </trkpt>
      <trkpt lat="49.89163" lon="1.15009">
        <ele>101.5</ele>
        <time>2013-08-15T09:33:18Z</time>
      </trkpt>
      <trkpt lat="49.89167" lon="1.1492">
        <ele>104.8</ele>
        <time>2013-08-15T09:33:33Z</time>
      </trkpt>
      <trkpt lat="49.89133" lon="1.14859">
        <ele>91.5</ele>
        <time>2013-08-15T09:34:22Z</time>
      </trkpt>
      <trkpt lat="49.89091" lon="1.14793">
        <ele>93.5</ele>
        <time>2013-08-15T09:34:55Z</time>
      </trkpt>
      <trkpt lat="49.89049" lon="1.14718">
        <ele>76.9</ele>
        <time>2013-08-15T09:35:15Z</time>
      </trkpt>
      <trkpt lat="49.89028" lon="1.14672">
        <ele>62</ele>
        <time>2013-08-15T09:35:26Z</time>
      </trkpt>
      <trkpt lat="49.89032" lon="1.14561">
        <ele>39.7</ele>
        <time>2013-08-15T09:35:44Z</time>
      </trkpt>
      <trkpt lat="49.89039" lon="1.14459">
        <ele>63.5</ele>
        <time>2013-08-15T09:36:06Z</time>
      </trkpt>
      <trkpt lat="49.89059" lon="1.14365">
        <ele>69.4</ele>
        <time>2013-08-15T09:36:26Z</time>
      </trkpt>
      <trkpt lat="49.89044" lon="1.14285">
        <ele>76.9</ele>
        <time>2013-08-15T09:37:23Z</time>
      </trkpt>
      <trkpt lat="49.88989" lon="1.14351">
        <ele>70.9</ele>
        <time>2013-08-15T09:38:29Z</time>
      </trkpt>
      <trkpt lat="49.88942" lon="1.14386">
        <ele>85</ele>
        <time>2013-08-15T09:40:27Z</time>
      </trkpt>
      <trkpt lat="49.88883" lon="1.14428">
        <ele>65.5</ele>
        <time>2013-08-15T09:41:36Z</time>
      </trkpt>
      <trkpt lat="49.88823" lon="1.14439">
        <ele>71.3</ele>
        <time>2013-08-15T09:42:03Z</time>
      </trkpt>
      <trkpt lat="49.88849" lon="1.14353">
        <ele>81.5</ele>
        <time>2013-08-15T09:42:41Z</time>
      </trkpt>
      <trkpt lat="49.88848" lon="1.1426">
        <ele>64</ele>
        <time>2013-08-15T09:43:00Z</time>
      </trkpt>
      <trkpt lat="49.88825" lon="1.14169">
        <ele>55.7</ele>
        <time>2013-08-15T09:43:10Z</time>
      </trkpt>
      <trkpt lat="49.88799" lon="1.14172">
        <ele>51.7</ele>
        <time>2013-08-15T09:43:14Z</time>
      </trkpt>
      <trkpt lat="49.88737" lon="1.14207">
        <ele>46.5</ele>
        <time>2013-08-15T09:43:26Z</time>
      </trkpt>
      <trkpt lat="49.88686" lon="1.14256">
        <ele>46.2</ele>
        <time>2013-08-15T09:43:39Z</time>
      </trkpt>
      <trkpt lat="49.88625" lon="1.14295">
        <ele>42.5</ele>
        <time>2013-08-15T09:43:55Z</time>
      </trkpt>
      <trkpt lat="49.88566" lon="1.14335">
        <ele>37.7</ele>
        <time>2013-08-15T09:44:11Z</time>
      </trkpt>
      <trkpt lat="49.88525" lon="1.14296">
        <ele>32.5</ele>
        <time>2013-08-15T09:44:17Z</time>
      </trkpt>
      <trkpt lat="49.88491" lon="1.14252">
        <ele>29</ele>
        <time>2013-08-15T09:44:21Z</time>
      </trkpt>
      <trkpt lat="49.88458" lon="1.14193">
        <ele>22.1</ele>
        <time>2013-08-15T09:44:25Z</time>
      </trkpt>
      <trkpt lat="49.88431" lon="1.14131">
        <ele>17</ele>
        <time>2013-08-15T09:44:30Z</time>
      </trkpt>
      <trkpt lat="49.88399" lon="1.14047">
        <ele>10.1</ele>
        <time>2013-08-15T09:44:40Z</time>
      </trkpt>
      <trkpt lat="49.88381" lon="1.14052">
        <ele>13.3</ele>
        <time>2013-08-15T09:45:55Z</time>
      </trkpt>
      <trkpt lat="49.88314" lon="1.14107">
        <ele>12</ele>
        <time>2013-08-15T09:46:14Z</time>
      </trkpt>
      <trkpt lat="49.88256" lon="1.1408">
        <ele>11.1</ele>
        <time>2013-08-15T09:46:32Z</time>
      </trkpt>
      <trkpt lat="49.88212" lon="1.14014">
        <ele>9.1</ele>
        <time>2013-08-15T09:46:46Z</time>
      </trkpt>
      <trkpt lat="49.8818" lon="1.13949">
        <ele>6</ele>
        <time>2013-08-15T09:46:59Z</time>
      </trkpt>
      <trkpt lat="49.88155" lon="1.13845">
        <ele>6.4</ele>
        <time>2013-08-15T09:47:14Z</time>
      </trkpt>
      <trkpt lat="49.88141" lon="1.13771">
        <ele>6</ele>
        <time>2013-08-15T09:47:23Z</time>
      </trkpt>
      <trkpt lat="49.88122" lon="1.13671">
        <ele>6.4</ele>
        <time>2013-08-15T09:47:35Z</time>
      </trkpt>
      <trkpt lat="49.88108" lon="1.13565">
        <ele>8.1</ele>
        <time>2013-08-15T09:47:47Z</time>
      </trkpt>
      <trkpt lat="49.881" lon="1.13467">
        <ele>8.3</ele>
        <time>2013-08-15T09:47:58Z</time>
      </trkpt>
      <trkpt lat="49.88091" lon="1.13368">
        <ele>9.1</ele>
        <time>2013-08-15T09:48:10Z</time>
      </trkpt>
      <trkpt lat="49.88081" lon="1.13283">
        <ele>12.6</ele>
        <time>2013-08-15T09:48:20Z</time>
      </trkpt>
      <trkpt lat="49.88072" lon="1.13189">
        <ele>12.3</ele>
        <time>2013-08-15T09:48:30Z</time>
      </trkpt>
      <trkpt lat="49.88066" lon="1.13105">
        <ele>13.1</ele>
        <time>2013-08-15T09:48:39Z</time>
      </trkpt>
      <trkpt lat="49.88059" lon="1.13008">
        <ele>14.3</ele>
        <time>2013-08-15T09:48:51Z</time>
      </trkpt>
      <trkpt lat="49.8811" lon="1.12966">
        <ele>11.6</ele>
        <time>2013-08-15T09:49:03Z</time>
      </trkpt>
      <trkpt lat="49.88138" lon="1.12943">
        <ele>13.1</ele>
        <time>2013-08-15T09:49:10Z</time>
      </trkpt>
      <trkpt lat="49.88192" lon="1.12904">
        <ele>12.6</ele>
        <time>2013-08-15T09:49:23Z</time>
      </trkpt>
      <trkpt lat="49.88229" lon="1.1287">
        <ele>15.3</ele>
        <time>2013-08-15T09:49:32Z</time>
      </trkpt>
      <trkpt lat="49.8826" lon="1.12798">
        <ele>16</ele>
        <time>2013-08-15T09:49:47Z</time>
      </trkpt>
      <trkpt lat="49.8822" lon="1.12718">
        <ele>17.2</ele>
        <time>2013-08-15T09:50:04Z</time>
      </trkpt>
      <trkpt lat="49.88204" lon="1.12678">
        <ele>19.7</ele>
        <time>2013-08-15T09:50:13Z</time>
      </trkpt>
      <trkpt lat="49.88156" lon="1.12614">
        <ele>21.2</ele>
        <time>2013-08-15T09:50:34Z</time>
      </trkpt>
      <trkpt lat="49.88101" lon="1.12562">
        <ele>22.2</ele>
        <time>2013-08-15T09:50:55Z</time>
      </trkpt>
      <trkpt lat="49.88047" lon="1.12508">
        <ele>27.7</ele>
        <time>2013-08-15T09:51:16Z</time>
      </trkpt>
      <trkpt lat="49.87995" lon="1.1245">
        <ele>28.2</ele>
        <time>2013-08-15T09:51:36Z</time>
      </trkpt>
      <trkpt lat="49.87941" lon="1.1239">
        <ele>32.9</ele>
        <time>2013-08-15T09:51:58Z</time>
      </trkpt>
      <trkpt lat="49.87882" lon="1.12342">
        <ele>40.4</ele>
        <time>2013-08-15T09:52:22Z</time>
      </trkpt>
      <trkpt lat="49.87826" lon="1.12287">
        <ele>40.7</ele>
        <time>2013-08-15T09:52:47Z</time>
      </trkpt>
      <trkpt lat="49.87789" lon="1.12227">
        <ele>48.2</ele>
        <time>2013-08-15T09:53:14Z</time>
      </trkpt>
      <trkpt lat="49.87736" lon="1.12123">
        <ele>76.3</ele>
        <time>2013-08-15T09:54:23Z</time>
      </trkpt>
      <trkpt lat="49.87706" lon="1.1206">
        <ele>95.8</ele>
        <time>2013-08-15T09:55:08Z</time>
      </trkpt>
      <trkpt lat="49.87665" lon="1.1198">
        <ele>84.9</ele>
        <time>2013-08-15T09:56:47Z</time>
      </trkpt>
      <trkpt lat="49.87657" lon="1.11953">
        <ele>88</ele>
        <time>2013-08-15T09:57:06Z</time>
      </trkpt>
      <trkpt lat="49.87636" lon="1.1184">
        <ele>92.4</ele>
        <time>2013-08-15T09:58:32Z</time>
      </trkpt>
      <trkpt lat="49.87621" lon="1.11739">
        <ele>90.5</ele>
        <time>2013-08-15T09:58:54Z</time>
      </trkpt>
      <trkpt lat="49.87602" lon="1.11667">
        <ele>93.5</ele>
        <time>2013-08-15T09:59:13Z</time>
      </trkpt>
      <trkpt lat="49.87569" lon="1.11583">
        <ele>95.9</ele>
        <time>2013-08-15T09:59:31Z</time>
      </trkpt>
      <trkpt lat="49.87538" lon="1.11503">
        <ele>98.4</ele>
        <time>2013-08-15T09:59:47Z</time>
      </trkpt>
      <trkpt lat="49.87507" lon="1.11421">
        <ele>101.8</ele>
        <time>2013-08-15T10:00:03Z</time>
      </trkpt>
      <trkpt lat="49.87546" lon="1.11369">
        <ele>109.5</ele>
        <time>2013-08-15T10:01:35Z</time>
      </trkpt>
      <trkpt lat="49.87598" lon="1.11318">
        <ele>112.8</ele>
        <time>2013-08-15T10:01:49Z</time>
      </trkpt>
      <trkpt lat="49.87653" lon="1.11263">
        <ele>111.3</ele>
        <time>2013-08-15T10:02:03Z</time>
      </trkpt>
      <trkpt lat="49.87705" lon="1.11211">
        <ele>108.5</ele>
        <time>2013-08-15T10:02:15Z</time>
      </trkpt>
      <trkpt lat="49.87757" lon="1.1116">
        <ele>107</ele>
        <time>2013-08-15T10:02:27Z</time>
      </trkpt>
      <trkpt lat="49.87809" lon="1.11109">
        <ele>106.4</ele>
        <time>2013-08-15T10:02:39Z</time>
      </trkpt>
      <trkpt lat="49.87859" lon="1.1106">
        <ele>105.8</ele>
        <time>2013-08-15T10:02:51Z</time>
      </trkpt>
      <trkpt lat="49.87908" lon="1.11011">
        <ele>105</ele>
        <time>2013-08-15T10:03:03Z</time>
      </trkpt>
      <trkpt lat="49.87934" lon="1.10945">
        <ele>104.8</ele>
        <time>2013-08-15T10:03:18Z</time>
      </trkpt>
      <trkpt lat="49.87901" lon="1.10874">
        <ele>105.4</ele>
        <time>2013-08-15T10:03:33Z</time>
      </trkpt>
      <trkpt lat="49.87867" lon="1.1081">
        <ele>105.4</ele>
        <time>2013-08-15T10:03:44Z</time>
      </trkpt>
      <trkpt lat="49.87829" lon="1.10737">
        <ele>104.5</ele>
        <time>2013-08-15T10:03:56Z</time>
      </trkpt>
      <trkpt lat="49.8779" lon="1.10663">
        <ele>101</ele>
        <time>2013-08-15T10:04:09Z</time>
      </trkpt>
      <trkpt lat="49.8781" lon="1.10631">
        <ele>101</ele>
        <time>2013-08-15T10:04:18Z</time>
      </trkpt>
      <trkpt lat="49.87861" lon="1.1058">
        <ele>103</ele>
        <time>2013-08-15T10:04:30Z</time>
      </trkpt>
      <trkpt lat="49.87913" lon="1.10522">
        <ele>105.5</ele>
        <time>2013-08-15T10:04:43Z</time>
      </trkpt>
      <trkpt lat="49.8796" lon="1.10465">
        <ele>102.5</ele>
        <time>2013-08-15T10:04:56Z</time>
      </trkpt>
      <trkpt lat="49.88015" lon="1.1041">
        <ele>104</ele>
        <time>2013-08-15T10:05:09Z</time>
      </trkpt>
      <trkpt lat="49.8807" lon="1.10362">
        <ele>102.4</ele>
        <time>2013-08-15T10:05:21Z</time>
      </trkpt>
      <trkpt lat="49.88122" lon="1.10337">
        <ele>103</ele>
        <time>2013-08-15T10:05:33Z</time>
      </trkpt>
      <trkpt lat="49.88171" lon="1.10374">
        <ele>104</ele>
        <time>2013-08-15T10:05:47Z</time>
      </trkpt>
      <trkpt lat="49.88214" lon="1.10298">
        <ele>103.9</ele>
        <time>2013-08-15T10:05:59Z</time>
      </trkpt>
      <trkpt lat="49.88258" lon="1.10224">
        <ele>103.8</ele>
        <time>2013-08-15T10:06:10Z</time>
      </trkpt>
      <trkpt lat="49.883" lon="1.10149">
        <ele>104</ele>
        <time>2013-08-15T10:06:21Z</time>
      </trkpt>
      <trkpt lat="49.88343" lon="1.10068">
        <ele>104.5</ele>
        <time>2013-08-15T10:06:33Z</time>
      </trkpt>
      <trkpt lat="49.88375" lon="1.1">
        <ele>103.4</ele>
        <time>2013-08-15T10:06:42Z</time>
      </trkpt>
      <trkpt lat="49.88405" lon="1.09928">
        <ele>103.4</ele>
        <time>2013-08-15T10:06:51Z</time>
      </trkpt>
      <trkpt lat="49.88389" lon="1.09857">
        <ele>101.5</ele>
        <time>2013-08-15T10:07:07Z</time>
      </trkpt>
      <trkpt lat="49.88372" lon="1.09814">
        <ele>103.5</ele>
        <time>2013-08-15T10:07:19Z</time>
      </trkpt>
      <trkpt lat="49.88414" lon="1.09753">
        <ele>103.8</ele>
        <time>2013-08-15T10:07:32Z</time>
      </trkpt>
      <trkpt lat="49.88438" lon="1.0971">
        <ele>104.5</ele>
        <time>2013-08-15T10:07:40Z</time>
      </trkpt>
      <trkpt lat="49.88482" lon="1.09632">
        <ele>105</ele>
        <time>2013-08-15T10:07:56Z</time>
      </trkpt>
      <trkpt lat="49.88536" lon="1.09659">
        <ele>105.3</ele>
        <time>2013-08-15T10:08:09Z</time>
      </trkpt>
      <trkpt lat="49.88596" lon="1.09639">
        <ele>104</ele>
        <time>2013-08-15T10:08:21Z</time>
      </trkpt>
      <trkpt lat="49.88657" lon="1.09618">
        <ele>98</ele>
        <time>2013-08-15T10:08:33Z</time>
      </trkpt>
      <trkpt lat="49.88717" lon="1.09597">
        <ele>96</ele>
        <time>2013-08-15T10:08:48Z</time>
      </trkpt>
      <trkpt lat="49.88782" lon="1.09561">
        <ele>98.9</ele>
        <time>2013-08-15T10:09:04Z</time>
      </trkpt>
      <trkpt lat="49.88842" lon="1.09526">
        <ele>96.8</ele>
        <time>2013-08-15T10:09:19Z</time>
      </trkpt>
      <trkpt lat="49.88859" lon="1.09509">
        <ele>94.8</ele>
        <time>2013-08-15T10:10:55Z</time>
      </trkpt>
      <trkpt lat="49.88932" lon="1.09487">
        <ele>92</ele>
        <time>2013-08-15T10:11:09Z</time>
      </trkpt>
      <trkpt lat="49.88985" lon="1.0947">
        <ele>90.5</ele>
        <time>2013-08-15T10:11:17Z</time>
      </trkpt>
      <trkpt lat="49.89044" lon="1.09461">
        <ele>90.4</ele>
        <time>2013-08-15T10:11:25Z</time>
      </trkpt>
      <trkpt lat="49.89107" lon="1.09452">
        <ele>90.4</ele>
        <time>2013-08-15T10:11:33Z</time>
      </trkpt>
      <trkpt lat="49.89168" lon="1.09444">
        <ele>90</ele>
        <time>2013-08-15T10:11:41Z</time>
      </trkpt>
      <trkpt lat="49.89229" lon="1.09447">
        <ele>90.3</ele>
        <time>2013-08-15T10:11:49Z</time>
      </trkpt>
      <trkpt lat="49.89285" lon="1.09448">
        <ele>89.4</ele>
        <time>2013-08-15T10:11:56Z</time>
      </trkpt>
      <trkpt lat="49.89352" lon="1.09436">
        <ele>88.5</ele>
        <time>2013-08-15T10:12:05Z</time>
      </trkpt>
      <trkpt lat="49.89395" lon="1.09427">
        <ele>88</ele>
        <time>2013-08-15T10:12:11Z</time>
      </trkpt>
      <trkpt lat="49.89448" lon="1.09416">
        <ele>89</ele>
        <time>2013-08-15T10:12:19Z</time>
      </trkpt>
      <trkpt lat="49.895" lon="1.09407">
        <ele>88</ele>
        <time>2013-08-15T10:12:27Z</time>
      </trkpt>
      <trkpt lat="49.89555" lon="1.09396">
        <ele>88</ele>
        <time>2013-08-15T10:12:35Z</time>
      </trkpt>
      <trkpt lat="49.8961" lon="1.0939">
        <ele>86.9</ele>
        <time>2013-08-15T10:12:43Z</time>
      </trkpt>
      <trkpt lat="49.8964" lon="1.09386">
        <ele>85.8</ele>
        <time>2013-08-15T10:12:47Z</time>
      </trkpt>
      <trkpt lat="49.89701" lon="1.09381">
        <ele>83.5</ele>
        <time>2013-08-15T10:12:55Z</time>
      </trkpt>
      <trkpt lat="49.89765" lon="1.09375">
        <ele>81</ele>
        <time>2013-08-15T10:13:03Z</time>
      </trkpt>
      <trkpt lat="49.89832" lon="1.09356">
        <ele>75.5</ele>
        <time>2013-08-15T10:13:11Z</time>
      </trkpt>
      <trkpt lat="49.89877" lon="1.09334">
        <ele>72</ele>
        <time>2013-08-15T10:13:17Z</time>
      </trkpt>
      <trkpt lat="49.8993" lon="1.09302">
        <ele>68.3</ele>
        <time>2013-08-15T10:13:25Z</time>
      </trkpt>
      <trkpt lat="49.89983" lon="1.09256">
        <ele>63.2</ele>
        <time>2013-08-15T10:13:33Z</time>
      </trkpt>
      <trkpt lat="49.90043" lon="1.09222">
        <ele>59.5</ele>
        <time>2013-08-15T10:13:41Z</time>
      </trkpt>
      <trkpt lat="49.90105" lon="1.09231">
        <ele>56</ele>
        <time>2013-08-15T10:13:49Z</time>
      </trkpt>
      <trkpt lat="49.90165" lon="1.09243">
        <ele>48.4</ele>
        <time>2013-08-15T10:13:57Z</time>
      </trkpt>
      <trkpt lat="49.90217" lon="1.09238">
        <ele>39.5</ele>
        <time>2013-08-15T10:14:04Z</time>
      </trkpt>
      <trkpt lat="49.90264" lon="1.0924">
        <ele>31</ele>
        <time>2013-08-15T10:14:09Z</time>
      </trkpt>
      <trkpt lat="49.90328" lon="1.09239">
        <ele>21.2</ele>
        <time>2013-08-15T10:14:21Z</time>
      </trkpt>
      <trkpt lat="49.90377" lon="1.09295">
        <ele>16.2</ele>
        <time>2013-08-15T10:14:29Z</time>
      </trkpt>
      <trkpt lat="49.9044" lon="1.09294">
        <ele>12.1</ele>
        <time>2013-08-15T10:14:45Z</time>
      </trkpt>
      <trkpt lat="49.9049" lon="1.09273">
        <ele>14.6</ele>
        <time>2013-08-15T10:15:00Z</time>
      </trkpt>
      <trkpt lat="49.90536" lon="1.09227">
        <ele>11.3</ele>
        <time>2013-08-15T10:15:07Z</time>
      </trkpt>
      <trkpt lat="49.90558" lon="1.09201">
        <ele>12.6</ele>
        <time>2013-08-15T10:15:11Z</time>
      </trkpt>
      <trkpt lat="49.90593" lon="1.09159">
        <ele>10.6</ele>
        <time>2013-08-15T10:15:17Z</time>
      </trkpt>
      <trkpt lat="49.90633" lon="1.09098">
        <ele>12.1</ele>
        <time>2013-08-15T10:15:25Z</time>
      </trkpt>
      <trkpt lat="49.90673" lon="1.09037">
        <ele>13.3</ele>
        <time>2013-08-15T10:15:33Z</time>
      </trkpt>
      <trkpt lat="49.90713" lon="1.08975">
        <ele>16.7</ele>
        <time>2013-08-15T10:15:41Z</time>
      </trkpt>
      <trkpt lat="49.90754" lon="1.08911">
        <ele>17.7</ele>
        <time>2013-08-15T10:15:49Z</time>
      </trkpt>
      <trkpt lat="49.90798" lon="1.08844">
        <ele>17.7</ele>
        <time>2013-08-15T10:15:57Z</time>
      </trkpt>
      <trkpt lat="49.90841" lon="1.08779">
        <ele>17</ele>
        <time>2013-08-15T10:16:05Z</time>
      </trkpt>
      <trkpt lat="49.90882" lon="1.08715">
        <ele>16.6</ele>
        <time>2013-08-15T10:16:13Z</time>
      </trkpt>
      <trkpt lat="49.90922" lon="1.08653">
        <ele>16.5</ele>
        <time>2013-08-15T10:16:21Z</time>
      </trkpt>
      <trkpt lat="49.90964" lon="1.08597">
        <ele>15.8</ele>
        <time>2013-08-15T10:16:29Z</time>
      </trkpt>
      <trkpt lat="49.90983" lon="1.08574">
        <ele>15.5</ele>
        <time>2013-08-15T10:16:33Z</time>
      </trkpt>
      <trkpt lat="49.91023" lon="1.08525">
        <ele>14.3</ele>
        <time>2013-08-15T10:16:41Z</time>
      </trkpt>
      <trkpt lat="49.91067" lon="1.08471">
        <ele>12.8</ele>
        <time>2013-08-15T10:16:49Z</time>
      </trkpt>
      <trkpt lat="49.91103" lon="1.08434">
        <ele>8.5</ele>
        <time>2013-08-15T10:16:55Z</time>
      </trkpt>
      <trkpt lat="49.9115" lon="1.08382">
        <ele>8.8</ele>
        <time>2013-08-15T10:17:03Z</time>
      </trkpt>
      <trkpt lat="49.91195" lon="1.08333">
        <ele>11</ele>
        <time>2013-08-15T10:17:11Z</time>
      </trkpt>
      <trkpt lat="49.91243" lon="1.08285">
        <ele>10.8</ele>
        <time>2013-08-15T10:17:19Z</time>
      </trkpt>
      <trkpt lat="49.91291" lon="1.08237">
        <ele>11.1</ele>
        <time>2013-08-15T10:17:27Z</time>
      </trkpt>
      <trkpt lat="49.91337" lon="1.08189">
        <ele>11.6</ele>
        <time>2013-08-15T10:17:35Z</time>
      </trkpt>
      <trkpt lat="49.9138" lon="1.08145">
        <ele>12.6</ele>
        <time>2013-08-15T10:17:43Z</time>
      </trkpt>
      <trkpt lat="49.91402" lon="1.08123">
        <ele>11.3</ele>
        <time>2013-08-15T10:17:47Z</time>
      </trkpt>
      <trkpt lat="49.91447" lon="1.08078">
        <ele>11.3</ele>
        <time>2013-08-15T10:17:55Z</time>
      </trkpt>
      <trkpt lat="49.9148" lon="1.08044">
        <ele>14.1</ele>
        <time>2013-08-15T10:18:01Z</time>
      </trkpt>
      <trkpt lat="49.91523" lon="1.07993">
        <ele>16.2</ele>
        <time>2013-08-15T10:18:09Z</time>
      </trkpt>
      <trkpt lat="49.91567" lon="1.07941">
        <ele>16.5</ele>
        <time>2013-08-15T10:18:17Z</time>
      </trkpt>
      <trkpt lat="49.91612" lon="1.07889">
        <ele>14.8</ele>
        <time>2013-08-15T10:18:25Z</time>
      </trkpt>
      <trkpt lat="49.9166" lon="1.07837">
        <ele>11.6</ele>
        <time>2013-08-15T10:18:33Z</time>
      </trkpt>
      <trkpt lat="49.91703" lon="1.07779">
        <ele>13</ele>
        <time>2013-08-15T10:18:41Z</time>
      </trkpt>
      <trkpt lat="49.91751" lon="1.07736">
        <ele>13</ele>
        <time>2013-08-15T10:18:52Z</time>
      </trkpt>
      <trkpt lat="49.91795" lon="1.07691">
        <ele>12.6</ele>
        <time>2013-08-15T10:19:09Z</time>
      </trkpt>
    </trkseg>
  </trk>
</gpx>